Time,TemperatureF,DewpointF,PressureIn,WindDirection,WindDirectionDegrees,WindSpeedMPH,WindSpeedGustMPH,Humidity,HourlyPrecipIn,Conditions,Clouds,dailyrainin,SoftwareType,DateUTC
2013-01-10 00:03:00,28.5,20.9,30.38,SW,236,5.0,8.0,73,0.00,,,0.00,Wunderground v.1.15,2013-01-10 06:03:00,
2013-01-10 00:04:00,28.4,20.8,30.38,WSW,241,11.0,11.0,73,0.00,,,0.00,Wunderground v.1.15,2013-01-10 06:04:00,
2013-01-10 00:09:00,28.2,21.0,30.39,SW,231,5.0,7.0,74,0.00,,,0.00,Wunderground v.1.15,2013-01-10 06:09:00,
2013-01-10 00:10:00,28.1,20.9,30.39,SW,224,5.0,7.0,74,0.00,,,0.00,Wunderground v.1.15,2013-01-10 06:10:00,
2013-01-10 00:15:00,27.9,21.0,30.39,SW,224,6.0,7.0,75,0.00,,,0.00,Wunderground v.1.15,2013-01-10 06:15:00,
2013-01-10 00:19:00,27.9,21.0,30.39,SW,218,6.0,6.0,75,0.00,,,0.00,Wunderground v.1.15,2013-01-10 06:19:00,
2013-01-10 00:23:00,27.9,21.0,30.39,WSW,239,6.0,6.0,75,0.00,,,0.00,Wunderground v.1.15,2013-01-10 06:23:00,
2013-01-10 00:24:00,27.9,21.0,30.39,SW,222,9.0,9.0,75,0.00,,,0.00,Wunderground v.1.15,2013-01-10 06:24:00,
2013-01-10 00:25:00,27.9,21.0,30.39,SW,227,7.0,9.0,75,0.00,,,0.00,Wunderground v.1.15,2013-01-10 06:25:00,
2013-01-10 00:29:00,27.9,21.0,30.39,WSW,243,7.0,7.0,75,0.00,,,0.00,Wunderground v.1.15,2013-01-10 06:29:00,
2013-01-10 00:33:00,27.8,21.2,30.39,SW,236,6.0,7.0,76,0.00,,,0.00,Wunderground v.1.15,2013-01-10 06:33:00,
2013-01-10 00:35:00,27.6,21.0,30.39,WSW,240,4.0,7.0,76,0.00,,,0.00,Wunderground v.1.15,2013-01-10 06:35:00,
2013-01-10 00:38:00,27.6,21.0,30.39,WSW,241,6.0,6.0,76,0.00,,,0.00,Wunderground v.1.15,2013-01-10 06:38:00,
2013-01-10 00:43:00,27.5,21.2,30.40,West,264,4.0,6.0,77,0.00,,,0.00,Wunderground v.1.15,2013-01-10 06:43:00,
2013-01-10 00:45:00,27.5,21.2,30.40,West,259,3.0,6.0,77,0.00,,,0.00,Wunderground v.1.15,2013-01-10 06:45:00,
2013-01-10 00:49:00,27.3,21.0,30.40,WSW,250,2.0,4.0,77,0.00,,,0.00,Wunderground v.1.15,2013-01-10 06:49:00,
2013-01-10 00:53:00,27.3,21.0,30.40,WSW,250,4.0,4.0,77,0.00,,,0.00,Wunderground v.1.15,2013-01-10 06:53:00,
2013-01-10 00:54:00,27.3,21.0,30.40,WSW,250,5.0,5.0,77,0.00,,,0.00,Wunderground v.1.15,2013-01-10 06:54:00,
2013-01-10 00:58:00,27.3,21.0,30.40,West,261,3.0,4.0,77,0.00,,,0.00,Wunderground v.1.15,2013-01-10 06:58:00,
2013-01-10 00:59:00,27.3,21.0,30.40,West,261,4.0,4.0,77,0.00,,,0.00,Wunderground v.1.15,2013-01-10 06:59:00,
2013-01-10 01:03:00,27.2,21.2,30.40,West,261,2.0,4.0,78,0.00,,,0.00,Wunderground v.1.15,2013-01-10 07:03:00,
2013-01-10 01:05:00,27.2,21.2,30.40,West,261,2.0,4.0,78,0.00,,,0.00,Wunderground v.1.15,2013-01-10 07:05:00,
2013-01-10 01:08:00,27.2,21.2,30.40,West,261,2.0,3.0,78,0.00,,,0.00,Wunderground v.1.15,2013-01-10 07:08:00,
2013-01-10 01:13:00,27.0,21.1,30.40,West,261,2.0,3.0,78,0.00,,,0.00,Wunderground v.1.15,2013-01-10 07:13:00,
2013-01-10 01:14:00,27.0,21.1,30.40,West,261,2.0,3.0,78,0.00,,,0.00,Wunderground v.1.15,2013-01-10 07:14:00,
2013-01-10 01:15:00,27.0,21.4,30.40,West,261,2.0,3.0,79,0.00,,,0.00,Wunderground v.1.15,2013-01-10 07:15:00,
2013-01-10 01:19:00,27.0,21.4,30.40,West,261,2.0,3.0,79,0.00,,,0.00,Wunderground v.1.15,2013-01-10 07:19:00,
2013-01-10 01:23:00,27.0,21.4,30.40,West,261,1.0,3.0,79,0.00,,,0.00,Wunderground v.1.15,2013-01-10 07:23:00,
2013-01-10 01:24:00,27.0,21.1,30.39,West,261,1.0,3.0,78,0.00,,,0.00,Wunderground v.1.15,2013-01-10 07:24:00,
2013-01-10 01:28:00,27.0,21.1,30.39,West,261,0.0,1.0,78,0.00,,,0.00,Wunderground v.1.15,2013-01-10 07:28:00,
2013-01-10 01:30:00,26.9,21.0,30.39,West,261,0.0,1.0,78,0.00,,,0.00,Wunderground v.1.15,2013-01-10 07:30:00,
2013-01-10 01:33:00,26.7,20.8,30.39,West,261,0.0,1.0,78,0.00,,,0.00,Wunderground v.1.15,2013-01-10 07:33:00,
2013-01-10 01:35:00,26.7,21.1,30.39,West,261,1.0,1.0,79,0.00,,,0.00,Wunderground v.1.15,2013-01-10 07:35:00,
2013-01-10 01:38:00,26.7,21.1,30.39,West,260,0.0,1.0,79,0.00,,,0.00,Wunderground v.1.15,2013-01-10 07:38:00,
2013-01-10 01:39:00,26.7,21.1,30.39,West,260,0.0,1.0,79,0.00,,,0.00,Wunderground v.1.15,2013-01-10 07:39:00,
2013-01-10 01:40:00,26.7,21.1,30.39,West,260,0.0,1.0,79,0.00,,,0.00,Wunderground v.1.15,2013-01-10 07:40:00,
2013-01-10 01:43:00,26.9,21.3,30.39,West,260,1.0,1.0,79,0.00,,,0.00,Wunderground v.1.15,2013-01-10 07:43:00,
2013-01-10 01:45:00,27.0,21.4,30.39,West,260,1.0,1.0,79,0.00,,,0.00,Wunderground v.1.15,2013-01-10 07:45:00,
2013-01-10 01:49:00,27.3,21.6,30.39,West,260,0.0,1.0,79,0.00,,,0.00,Wunderground v.1.15,2013-01-10 07:49:00,
2013-01-10 01:50:00,27.5,21.5,30.39,West,260,0.0,1.0,78,0.00,,,0.00,Wunderground v.1.15,2013-01-10 07:50:00,
2013-01-10 01:53:00,27.9,21.6,30.39,West,260,2.0,2.0,77,0.00,,,0.00,Wunderground v.1.15,2013-01-10 07:53:00,
2013-01-10 01:54:00,28.1,21.8,30.39,West,260,1.0,2.0,77,0.00,,,0.00,Wunderground v.1.15,2013-01-10 07:54:00,
2013-01-10 01:58:00,28.4,21.5,30.39,West,260,1.0,1.0,75,0.00,,,0.00,Wunderground v.1.15,2013-01-10 07:58:00,
2013-01-10 01:59:00,28.5,21.6,30.39,West,260,3.0,3.0,75,0.00,,,0.00,Wunderground v.1.15,2013-01-10 07:59:00,
2013-01-10 02:03:00,28.7,21.5,30.39,SW,222,3.0,4.0,74,0.00,,,0.00,Wunderground v.1.15,2013-01-10 08:03:00,
2013-01-10 02:04:00,28.5,20.9,30.39,SW,222,3.0,4.0,73,0.00,,,0.00,Wunderground v.1.15,2013-01-10 08:04:00,
2013-01-10 02:05:00,28.5,20.9,30.39,SW,222,3.0,4.0,73,0.00,,,0.00,Wunderground v.1.15,2013-01-10 08:05:00,
2013-01-10 02:08:00,28.5,21.3,30.40,SW,222,3.0,3.0,74,0.00,,,0.00,Wunderground v.1.15,2013-01-10 08:08:00,
2013-01-10 02:09:00,28.7,21.5,30.40,SW,222,3.0,4.0,74,0.00,,,0.00,Wunderground v.1.15,2013-01-10 08:09:00,
2013-01-10 02:10:00,28.7,21.1,30.40,SW,222,3.0,4.0,73,0.00,,,0.00,Wunderground v.1.15,2013-01-10 08:10:00,
2013-01-10 02:14:00,28.8,21.2,30.40,SW,222,4.0,4.0,73,0.00,,,0.00,Wunderground v.1.15,2013-01-10 08:14:00,
2013-01-10 02:15:00,29.0,21.1,30.40,SW,217,4.0,5.0,72,0.00,,,0.00,Wunderground v.1.15,2013-01-10 08:15:00,
2013-01-10 02:18:00,29.0,21.1,30.40,SSW,207,5.0,5.0,72,0.00,,,0.00,Wunderground v.1.15,2013-01-10 08:18:00,
2013-01-10 02:19:00,29.0,21.1,30.40,SSW,207,4.0,5.0,72,0.00,,,0.00,Wunderground v.1.15,2013-01-10 08:19:00,
2013-01-10 02:20:00,29.0,21.1,30.40,SSW,207,5.0,5.0,72,0.00,,,0.00,Wunderground v.1.15,2013-01-10 08:20:00,
2013-01-10 02:23:00,29.0,21.1,30.40,SSW,200,5.0,5.0,72,0.00,,,0.00,Wunderground v.1.15,2013-01-10 08:23:00,
2013-01-10 02:24:00,29.0,20.8,30.41,SSW,199,5.0,5.0,71,0.00,,,0.00,Wunderground v.1.15,2013-01-10 08:24:00,
2013-01-10 02:25:00,29.0,20.8,30.41,SSW,200,4.0,6.0,71,0.00,,,0.00,Wunderground v.1.15,2013-01-10 08:25:00,
2013-01-10 02:28:00,29.1,20.9,30.41,SW,234,5.0,5.0,71,0.00,,,0.00,Wunderground v.1.15,2013-01-10 08:28:00,
2013-01-10 02:29:00,29.1,20.9,30.41,SW,232,3.0,5.0,71,0.00,,,0.00,Wunderground v.1.15,2013-01-10 08:29:00,
2013-01-10 02:33:00,29.1,20.9,30.41,SW,231,4.0,5.0,71,0.00,,,0.00,Wunderground v.1.15,2013-01-10 08:33:00,
2013-01-10 02:36:00,29.0,20.8,30.41,SW,226,4.0,5.0,71,0.00,,,0.00,Wunderground v.1.15,2013-01-10 08:36:00,
2013-01-10 02:38:00,29.0,20.8,30.41,SW,226,6.0,6.0,71,0.00,,,0.00,Wunderground v.1.15,2013-01-10 08:38:00,
2013-01-10 02:44:00,28.8,20.9,30.41,SW,231,4.0,6.0,72,0.00,,,0.00,Wunderground v.1.15,2013-01-10 08:44:00,
2013-01-10 02:50:00,28.5,20.6,30.41,SW,221,5.0,5.0,72,0.00,,,0.00,Wunderground v.1.15,2013-01-10 08:50:00,
2013-01-10 02:51:00,28.5,20.6,30.41,SW,226,4.0,5.0,72,0.00,,,0.00,Wunderground v.1.15,2013-01-10 08:51:00,
2013-01-10 02:53:00,28.4,20.8,30.41,SW,226,3.0,5.0,73,0.00,,,0.00,Wunderground v.1.15,2013-01-10 08:53:00,
2013-01-10 02:55:00,28.2,20.7,30.41,SW,225,4.0,5.0,73,0.00,,,0.00,Wunderground v.1.15,2013-01-10 08:55:00,
2013-01-10 02:58:00,28.1,20.9,30.41,SW,227,3.0,4.0,74,0.00,,,0.00,Wunderground v.1.15,2013-01-10 08:58:00,
2013-01-10 02:59:00,28.1,20.9,30.41,SW,229,4.0,4.0,74,0.00,,,0.00,Wunderground v.1.15,2013-01-10 08:59:00,
2013-01-10 03:00:00,27.9,20.7,30.41,SW,224,3.0,5.0,74,0.00,,,0.00,Wunderground v.1.15,2013-01-10 09:00:00,
2013-01-10 03:04:00,27.9,20.7,30.41,SW,217,4.0,5.0,74,0.00,,,0.00,Wunderground v.1.15,2013-01-10 09:04:00,
2013-01-10 03:05:00,27.8,20.6,30.41,SSW,205,3.0,5.0,74,0.00,,,0.00,Wunderground v.1.15,2013-01-10 09:05:00,
2013-01-10 03:10:00,27.6,20.7,30.41,SSW,205,2.0,3.0,75,0.00,,,0.00,Wunderground v.1.15,2013-01-10 09:10:00,
2013-01-10 03:13:00,27.6,20.7,30.41,SSW,205,2.0,3.0,75,0.00,,,0.00,Wunderground v.1.15,2013-01-10 09:13:00,
2013-01-10 03:15:00,27.8,20.9,30.41,SSW,205,3.0,3.0,75,0.00,,,0.00,Wunderground v.1.15,2013-01-10 09:15:00,
2013-01-10 03:16:00,27.8,21.2,30.41,SSW,205,2.0,3.0,76,0.00,,,0.00,Wunderground v.1.15,2013-01-10 09:16:00,
2013-01-10 03:18:00,27.8,20.9,30.41,SSW,205,3.0,3.0,75,0.00,,,0.00,Wunderground v.1.15,2013-01-10 09:18:00,
2013-01-10 03:20:00,27.6,21.0,30.41,SSW,205,2.0,3.0,76,0.00,,,0.00,Wunderground v.1.15,2013-01-10 09:20:00,
2013-01-10 03:23:00,27.6,21.0,30.41,SSW,205,2.0,3.0,76,0.00,,,0.00,Wunderground v.1.15,2013-01-10 09:23:00,
2013-01-10 03:25:00,27.8,21.2,30.41,SSW,205,3.0,3.0,76,0.00,,,0.00,Wunderground v.1.15,2013-01-10 09:25:00,
2013-01-10 03:29:00,27.9,21.3,30.41,SSW,205,3.0,3.0,76,0.00,,,0.00,Wunderground v.1.15,2013-01-10 09:29:00,
2013-01-10 03:30:00,27.8,20.9,30.41,SSW,205,2.0,3.0,75,0.00,,,0.00,Wunderground v.1.15,2013-01-10 09:30:00,
2013-01-10 03:33:00,27.6,20.7,30.41,SSW,205,3.0,3.0,75,0.00,,,0.00,Wunderground v.1.15,2013-01-10 09:33:00,
2013-01-10 03:35:00,27.5,20.9,30.41,SSW,205,2.0,3.0,76,0.00,,,0.00,Wunderground v.1.15,2013-01-10 09:35:00,
2013-01-10 03:38:00,27.6,21.3,30.40,SSW,205,2.0,3.0,77,0.00,,,0.00,Wunderground v.1.15,2013-01-10 09:38:00,
2013-01-10 03:39:00,27.6,21.3,30.40,SSW,205,3.0,3.0,77,0.00,,,0.00,Wunderground v.1.15,2013-01-10 09:39:00,
2013-01-10 03:43:00,27.3,20.7,30.40,SSW,205,3.0,3.0,76,0.00,,,0.00,Wunderground v.1.15,2013-01-10 09:43:00,
2013-01-10 03:44:00,27.3,20.7,30.40,SSW,205,3.0,3.0,76,0.00,,,0.00,Wunderground v.1.15,2013-01-10 09:44:00,
2013-01-10 03:45:00,27.3,21.0,30.40,SSW,205,4.0,4.0,77,0.00,,,0.00,Wunderground v.1.15,2013-01-10 09:45:00,
2013-01-10 03:49:00,27.3,21.3,30.40,SSW,204,4.0,4.0,78,0.00,,,0.00,Wunderground v.1.15,2013-01-10 09:49:00,
2013-01-10 03:50:00,27.5,21.5,30.40,SSW,203,4.0,4.0,78,0.00,,,0.00,Wunderground v.1.15,2013-01-10 09:50:00,
2013-01-10 03:54:00,27.6,21.6,30.40,SSW,195,3.0,4.0,78,0.00,,,0.00,Wunderground v.1.15,2013-01-10 09:54:00,
2013-01-10 03:55:00,27.8,21.8,30.40,SSW,195,2.0,4.0,78,0.00,,,0.00,Wunderground v.1.15,2013-01-10 09:55:00,
2013-01-10 03:58:00,27.8,21.8,30.40,SSW,195,4.0,4.0,78,0.00,,,0.00,Wunderground v.1.15,2013-01-10 09:58:00,
2013-01-10 03:59:00,27.8,21.8,30.40,SSW,196,4.0,5.0,78,0.00,,,0.00,Wunderground v.1.15,2013-01-10 09:59:00,
2013-01-10 04:01:00,27.9,21.9,30.40,SSW,195,3.0,5.0,78,0.00,,,0.00,Wunderground v.1.15,2013-01-10 10:01:00,
2013-01-10 04:02:00,27.9,21.9,30.40,SSW,196,3.0,5.0,78,0.00,,,0.00,Wunderground v.1.15,2013-01-10 10:02:00,
2013-01-10 04:03:00,27.9,21.9,30.40,SSW,196,3.0,5.0,78,0.00,,,0.00,Wunderground v.1.15,2013-01-10 10:03:00,
2013-01-10 04:08:00,27.8,21.5,30.40,SSW,195,2.0,3.0,77,0.00,,,0.00,Wunderground v.1.15,2013-01-10 10:08:00,
2013-01-10 04:09:00,27.8,21.8,30.40,SSW,195,2.0,3.0,78,0.00,,,0.00,Wunderground v.1.15,2013-01-10 10:09:00,
2013-01-10 04:14:00,27.8,21.8,30.40,SSW,195,2.0,3.0,78,0.00,,,0.00,Wunderground v.1.15,2013-01-10 10:14:00,
2013-01-10 04:15:00,27.6,21.6,30.40,SSW,195,3.0,3.0,78,0.00,,,0.00,Wunderground v.1.15,2013-01-10 10:15:00,
2013-01-10 04:20:00,27.9,22.2,30.40,SSW,195,3.0,3.0,79,0.00,,,0.00,Wunderground v.1.15,2013-01-10 10:20:00,
2013-01-10 04:21:00,28.1,22.4,30.40,SSW,195,3.0,3.0,79,0.00,,,0.00,Wunderground v.1.15,2013-01-10 10:21:00,
2013-01-10 04:25:00,28.4,22.4,30.40,SSW,195,2.0,3.0,78,0.00,,,0.00,Wunderground v.1.15,2013-01-10 10:25:00,
2013-01-10 04:28:00,28.4,22.4,30.40,SSW,195,4.0,4.0,78,0.00,,,0.00,Wunderground v.1.15,2013-01-10 10:28:00,
2013-01-10 04:30:00,28.4,22.4,30.40,SSW,195,2.0,4.0,78,0.00,,,0.00,Wunderground v.1.15,2013-01-10 10:30:00,
2013-01-10 04:34:00,28.5,22.5,30.40,SSW,195,3.0,4.0,78,0.00,,,0.00,Wunderground v.1.15,2013-01-10 10:34:00,
2013-01-10 04:35:00,28.5,22.5,30.40,SSW,195,3.0,4.0,78,0.00,,,0.00,Wunderground v.1.15,2013-01-10 10:35:00,
2013-01-10 04:37:00,28.5,22.5,30.40,SSW,195,2.0,4.0,78,0.00,,,0.00,Wunderground v.1.15,2013-01-10 10:37:00,
2013-01-10 04:40:00,28.5,22.2,30.39,SSW,195,1.0,3.0,77,0.00,,,0.00,Wunderground v.1.15,2013-01-10 10:40:00,
2013-01-10 04:41:00,28.5,22.2,30.39,SSW,195,0.0,3.0,77,0.00,,,0.00,Wunderground v.1.15,2013-01-10 10:41:00,
2013-01-10 04:43:00,28.4,22.1,30.39,SSW,195,1.0,3.0,77,0.00,,,0.00,Wunderground v.1.15,2013-01-10 10:43:00,
2013-01-10 04:44:00,28.4,22.1,30.39,SSW,195,1.0,3.0,77,0.00,,,0.00,Wunderground v.1.15,2013-01-10 10:44:00,
2013-01-10 04:48:00,28.1,22.1,30.39,SSW,195,0.0,1.0,78,0.00,,,0.00,Wunderground v.1.15,2013-01-10 10:48:00,
2013-01-10 04:49:00,28.1,22.1,30.39,SSW,195,0.0,1.0,78,0.00,,,0.00,Wunderground v.1.15,2013-01-10 10:49:00,
2013-01-10 04:53:00,28.1,22.1,30.39,SSW,195,1.0,1.0,78,0.00,,,0.00,Wunderground v.1.15,2013-01-10 10:53:00,
2013-01-10 04:54:00,28.1,22.1,30.39,SSW,195,0.0,1.0,78,0.00,,,0.00,Wunderground v.1.15,2013-01-10 10:54:00,
2013-01-10 04:55:00,28.1,22.1,30.39,SSW,195,1.0,1.0,78,0.00,,,0.00,Wunderground v.1.15,2013-01-10 10:55:00,
2013-01-10 04:58:00,27.9,21.9,30.39,SSW,196,0.0,0.0,78,0.00,,,0.00,Wunderground v.1.15,2013-01-10 10:58:00,
2013-01-10 04:59:00,27.9,21.9,30.39,SSW,195,0.0,0.0,78,0.00,,,0.00,Wunderground v.1.15,2013-01-10 10:59:00,
2013-01-10 05:00:00,27.9,21.9,30.39,SSW,195,0.0,1.0,78,0.00,,,0.00,Wunderground v.1.15,2013-01-10 11:00:00,
2013-01-10 05:04:00,27.8,21.8,30.39,SSW,195,0.0,1.0,78,0.00,,,0.00,Wunderground v.1.15,2013-01-10 11:04:00,
2013-01-10 05:08:00,27.9,22.2,30.39,SSW,195,0.0,0.0,79,0.00,,,0.00,Wunderground v.1.15,2013-01-10 11:08:00,
2013-01-10 05:09:00,27.9,22.2,30.39,SSW,195,0.0,0.0,79,0.00,,,0.00,Wunderground v.1.15,2013-01-10 11:09:00,
2013-01-10 05:11:00,27.9,21.9,30.39,SSW,195,0.0,0.0,78,0.00,,,0.00,Wunderground v.1.15,2013-01-10 11:11:00,
2013-01-10 05:13:00,27.9,22.2,30.39,SSW,195,0.0,0.0,79,0.00,,,0.00,Wunderground v.1.15,2013-01-10 11:13:00,
2013-01-10 05:14:00,27.9,22.2,30.39,SSW,195,0.0,0.0,79,0.00,,,0.00,Wunderground v.1.15,2013-01-10 11:14:00,
2013-01-10 05:18:00,27.6,21.6,30.39,SSW,195,0.0,1.0,78,0.00,,,0.00,Wunderground v.1.15,2013-01-10 11:18:00,
2013-01-10 05:19:00,27.5,21.8,30.39,SSW,195,0.0,1.0,79,0.00,,,0.00,Wunderground v.1.15,2013-01-10 11:19:00,
2013-01-10 05:20:00,27.6,21.9,30.39,SSW,195,0.0,1.0,79,0.00,,,0.00,Wunderground v.1.15,2013-01-10 11:20:00,
2013-01-10 05:24:00,28.1,22.4,30.39,SSW,195,0.0,1.0,79,0.00,,,0.00,Wunderground v.1.15,2013-01-10 11:24:00,
2013-01-10 05:25:00,28.2,22.5,30.39,SSW,195,0.0,1.0,79,0.00,,,0.00,Wunderground v.1.15,2013-01-10 11:25:00,
2013-01-10 05:26:00,28.2,22.5,30.39,SSW,195,0.0,1.0,79,0.00,,,0.00,Wunderground v.1.15,2013-01-10 11:26:00,
2013-01-10 05:30:00,28.7,22.7,30.39,SSW,195,1.0,1.0,78,0.00,,,0.00,Wunderground v.1.15,2013-01-10 11:30:00,
2013-01-10 05:33:00,28.8,22.8,30.39,SSW,195,0.0,1.0,78,0.00,,,0.00,Wunderground v.1.15,2013-01-10 11:33:00,
2013-01-10 05:35:00,28.7,22.1,30.39,SSW,195,1.0,1.0,76,0.00,,,0.00,Wunderground v.1.15,2013-01-10 11:35:00,
2013-01-10 05:38:00,28.4,21.8,30.40,SSW,195,2.0,2.0,76,0.00,,,0.00,Wunderground v.1.15,2013-01-10 11:38:00,
2013-01-10 05:39:00,28.4,21.8,30.40,SSW,195,2.0,2.0,76,0.00,,,0.00,Wunderground v.1.15,2013-01-10 11:39:00,
2013-01-10 05:43:00,28.1,21.8,30.40,SSW,195,2.0,3.0,77,0.00,,,0.00,Wunderground v.1.15,2013-01-10 11:43:00,
2013-01-10 05:44:00,28.2,21.9,30.40,SSW,195,2.0,3.0,77,0.00,,,0.00,Wunderground v.1.15,2013-01-10 11:44:00,
2013-01-10 05:45:00,28.2,21.9,30.40,SSW,195,2.0,3.0,77,0.00,,,0.00,Wunderground v.1.15,2013-01-10 11:45:00,
2013-01-10 05:48:00,28.4,22.1,30.40,SSW,195,1.0,2.0,77,0.00,,,0.00,Wunderground v.1.15,2013-01-10 11:48:00,
2013-01-10 05:49:00,28.2,21.9,30.40,SSW,195,1.0,2.0,77,0.00,,,0.00,Wunderground v.1.15,2013-01-10 11:49:00,
2013-01-10 05:50:00,28.4,22.1,30.40,SSW,195,0.0,2.0,77,0.00,,,0.00,Wunderground v.1.15,2013-01-10 11:50:00,
2013-01-10 05:53:00,28.5,22.2,30.40,SSW,195,1.0,2.0,77,0.00,,,0.00,Wunderground v.1.15,2013-01-10 11:53:00,
2013-01-10 05:55:00,28.4,21.8,30.40,SSW,195,1.0,2.0,76,0.00,,,0.00,Wunderground v.1.15,2013-01-10 11:55:00,
2013-01-10 05:58:00,28.1,21.8,30.40,SSW,195,0.0,1.0,77,0.00,,,0.00,Wunderground v.1.15,2013-01-10 11:58:00,
2013-01-10 06:00:00,27.9,21.6,30.40,SSW,195,0.0,1.0,77,0.00,,,0.00,Wunderground v.1.15,2013-01-10 12:00:00,
2013-01-10 06:01:00,27.9,21.6,30.40,SSW,195,0.0,1.0,77,0.00,,,0.00,Wunderground v.1.15,2013-01-10 12:01:00,
2013-01-10 06:04:00,27.8,21.5,30.40,SSW,195,0.0,1.0,77,0.00,,,0.00,Wunderground v.1.15,2013-01-10 12:04:00,
2013-01-10 06:05:00,27.8,21.5,30.40,SSW,195,0.0,1.0,77,0.00,,,0.00,Wunderground v.1.15,2013-01-10 12:05:00,
2013-01-10 06:08:00,27.5,21.2,30.39,SSW,195,0.0,0.0,77,0.00,,,0.00,Wunderground v.1.15,2013-01-10 12:08:00,
2013-01-10 06:09:00,27.5,21.2,30.39,SSW,195,0.0,0.0,77,0.00,,,0.00,Wunderground v.1.15,2013-01-10 12:09:00,
2013-01-10 06:10:00,27.5,21.2,30.39,SSW,195,0.0,0.0,77,0.00,,,0.00,Wunderground v.1.15,2013-01-10 12:10:00,
2013-01-10 06:13:00,27.0,21.1,30.39,SSW,195,1.0,1.0,78,0.00,,,0.00,Wunderground v.1.15,2013-01-10 12:13:00,
2013-01-10 06:14:00,27.0,21.1,30.39,SSW,195,1.0,2.0,78,0.00,,,0.00,Wunderground v.1.15,2013-01-10 12:14:00,
2013-01-10 06:15:00,26.9,21.0,30.39,SSW,195,1.0,2.0,78,0.00,,,0.00,Wunderground v.1.15,2013-01-10 12:15:00,
2013-01-10 06:19:00,26.9,21.3,30.39,SSW,195,0.0,1.0,79,0.00,,,0.00,Wunderground v.1.15,2013-01-10 12:19:00,
2013-01-10 06:20:00,26.7,21.1,30.39,SSW,195,0.0,1.0,79,0.00,,,0.00,Wunderground v.1.15,2013-01-10 12:20:00,
2013-01-10 06:24:00,26.6,21.3,30.40,SSW,195,0.0,1.0,80,0.00,,,0.00,Wunderground v.1.15,2013-01-10 12:24:00,
2013-01-10 06:25:00,26.6,21.3,30.40,SSW,195,0.0,1.0,80,0.00,,,0.00,Wunderground v.1.15,2013-01-10 12:25:00,
2013-01-10 06:28:00,26.3,20.7,30.40,SSW,195,0.0,0.0,79,0.00,,,0.00,Wunderground v.1.15,2013-01-10 12:28:00,
2013-01-10 06:29:00,26.1,20.8,30.40,SSW,195,0.0,0.0,80,0.00,,,0.00,Wunderground v.1.15,2013-01-10 12:29:00,
2013-01-10 06:33:00,25.8,20.5,30.40,SSW,195,1.0,1.0,80,0.00,,,0.00,Wunderground v.1.15,2013-01-10 12:33:00,
2013-01-10 06:34:00,25.7,20.7,30.40,SSW,195,1.0,2.0,81,0.00,,,0.00,Wunderground v.1.15,2013-01-10 12:34:00,
2013-01-10 06:35:00,25.7,20.7,30.40,SSW,195,2.0,2.0,81,0.00,,,0.00,Wunderground v.1.15,2013-01-10 12:35:00,
2013-01-10 06:38:00,25.8,21.1,30.40,SSW,195,2.0,2.0,82,0.00,,,0.00,Wunderground v.1.15,2013-01-10 12:38:00,
2013-01-10 06:39:00,25.8,21.1,30.40,SSW,195,1.0,2.0,82,0.00,,,0.00,Wunderground v.1.15,2013-01-10 12:39:00,
2013-01-10 06:40:00,25.8,21.1,30.40,SSW,195,1.0,2.0,82,0.00,,,0.00,Wunderground v.1.15,2013-01-10 12:40:00,
2013-01-10 06:43:00,26.3,21.6,30.40,SSW,195,1.0,2.0,82,0.00,,,0.00,Wunderground v.1.15,2013-01-10 12:43:00,
2013-01-10 06:44:00,26.3,21.6,30.40,SSW,195,2.0,2.0,82,0.00,,,0.00,Wunderground v.1.15,2013-01-10 12:44:00,
2013-01-10 06:45:00,26.3,21.6,30.40,SSW,195,1.0,2.0,82,0.00,,,0.00,Wunderground v.1.15,2013-01-10 12:45:00,
2013-01-10 06:46:00,26.3,21.6,30.40,SSW,195,3.0,3.0,82,0.00,,,0.00,Wunderground v.1.15,2013-01-10 12:46:00,
2013-01-10 06:49:00,26.4,21.7,30.40,SSW,195,2.0,3.0,82,0.00,,,0.00,Wunderground v.1.15,2013-01-10 12:49:00,
2013-01-10 06:50:00,26.6,21.6,30.40,SSW,195,3.0,3.0,81,0.00,,,0.00,Wunderground v.1.15,2013-01-10 12:50:00,
2013-01-10 06:53:00,26.7,21.7,30.39,SSW,195,3.0,3.0,81,0.00,,,0.00,Wunderground v.1.15,2013-01-10 12:53:00,
2013-01-10 06:54:00,26.7,21.4,30.39,SSW,195,3.0,3.0,80,0.00,,,0.00,Wunderground v.1.15,2013-01-10 12:54:00,
2013-01-10 06:58:00,27.0,21.7,30.39,SSW,195,2.0,3.0,80,0.00,,,0.00,Wunderground v.1.15,2013-01-10 12:58:00,
2013-01-10 06:59:00,27.0,21.7,30.39,SSW,195,3.0,3.0,80,0.00,,,0.00,Wunderground v.1.15,2013-01-10 12:59:00,
2013-01-10 07:00:00,27.0,21.4,30.39,SSW,195,3.0,3.0,79,0.00,,,0.00,Wunderground v.1.15,2013-01-10 13:00:00,
2013-01-10 07:03:00,27.2,21.5,30.39,SE,140,3.0,4.0,79,0.00,,,0.00,Wunderground v.1.15,2013-01-10 13:03:00,
2013-01-10 07:04:00,27.3,21.6,30.39,SE,135,4.0,4.0,79,0.00,,,0.00,Wunderground v.1.15,2013-01-10 13:04:00,
2013-01-10 07:05:00,27.5,21.8,30.39,SE,131,3.0,4.0,79,0.00,,,0.00,Wunderground v.1.15,2013-01-10 13:05:00,
2013-01-10 07:08:00,27.6,21.3,30.39,SE,133,3.0,4.0,77,0.00,,,0.00,Wunderground v.1.15,2013-01-10 13:08:00,
2013-01-10 07:09:00,27.8,21.5,30.39,SE,140,4.0,5.0,77,0.00,,,0.00,Wunderground v.1.15,2013-01-10 13:09:00,
2013-01-10 07:11:00,27.8,21.5,30.39,SE,139,4.0,5.0,77,0.00,,,0.00,Wunderground v.1.15,2013-01-10 13:11:00,
2013-01-10 07:14:00,27.9,21.3,30.39,SE,146,4.0,5.0,76,0.00,,,0.00,Wunderground v.1.15,2013-01-10 13:14:00,
2013-01-10 07:15:00,27.9,21.3,30.39,SE,138,3.0,5.0,76,0.00,,,0.00,Wunderground v.1.15,2013-01-10 13:15:00,
2013-01-10 07:18:00,27.9,21.0,30.39,SE,137,4.0,4.0,75,0.00,,,0.00,Wunderground v.1.15,2013-01-10 13:18:00,
2013-01-10 07:20:00,28.1,21.2,30.39,SE,133,5.0,5.0,75,0.00,,,0.00,Wunderground v.1.15,2013-01-10 13:20:00,
2013-01-10 07:23:00,28.2,21.3,30.40,SE,129,3.0,5.0,75,0.00,,,0.00,Wunderground v.1.15,2013-01-10 13:23:00,
2013-01-10 07:24:00,28.4,21.2,30.40,SE,129,4.0,5.0,74,0.00,,,0.00,Wunderground v.1.15,2013-01-10 13:24:00,
2013-01-10 07:26:00,28.5,21.3,30.40,SE,128,3.0,6.0,74,0.00,,,0.00,Wunderground v.1.15,2013-01-10 13:26:00,
2013-01-10 07:29:00,28.7,21.1,30.40,SE,136,4.0,5.0,73,0.00,,,0.00,Wunderground v.1.15,2013-01-10 13:29:00,
2013-01-10 07:34:00,29.0,21.1,30.40,SE,145,5.0,7.0,72,0.00,,,0.00,Wunderground v.1.15,2013-01-10 13:34:00,
2013-01-10 07:35:00,29.1,21.2,30.40,SE,136,4.0,7.0,72,0.00,,,0.00,Wunderground v.1.15,2013-01-10 13:35:00,
2013-01-10 07:39:00,29.1,20.9,30.40,SE,146,5.0,6.0,71,0.00,,,0.00,Wunderground v.1.15,2013-01-10 13:39:00,
2013-01-10 07:40:00,29.1,20.9,30.40,SSE,148,6.0,6.0,71,0.00,,,0.00,Wunderground v.1.15,2013-01-10 13:40:00,
2013-01-10 07:41:00,29.1,20.9,30.40,SE,142,3.0,6.0,71,0.00,,,0.00,Wunderground v.1.15,2013-01-10 13:41:00,
2013-01-10 07:44:00,29.3,20.7,30.40,SE,139,4.0,7.0,70,0.00,,,0.00,Wunderground v.1.15,2013-01-10 13:44:00,
2013-01-10 07:45:00,29.3,20.7,30.40,SE,139,4.0,7.0,70,0.00,,,0.00,Wunderground v.1.15,2013-01-10 13:45:00,
2013-01-10 07:46:00,29.3,20.7,30.40,SSE,147,3.0,7.0,70,0.00,,,0.00,Wunderground v.1.15,2013-01-10 13:46:00,
2013-01-10 07:49:00,29.4,20.5,30.40,SSE,147,5.0,5.0,69,0.00,,,0.00,Wunderground v.1.15,2013-01-10 13:49:00,
2013-01-10 07:50:00,29.4,20.5,30.40,SE,139,4.0,5.0,69,0.00,,,0.00,Wunderground v.1.15,2013-01-10 13:50:00,
2013-01-10 07:54:00,29.5,20.6,30.40,SE,128,6.0,8.0,69,0.00,,,0.00,Wunderground v.1.15,2013-01-10 13:54:00,
2013-01-10 07:56:00,29.7,20.4,30.40,SE,145,6.0,10.0,68,0.00,,,0.00,Wunderground v.1.15,2013-01-10 13:56:00,
2013-01-10 07:59:00,29.8,20.5,30.40,SSE,160,6.0,8.0,68,0.00,,,0.00,Wunderground v.1.15,2013-01-10 13:59:00,
2013-01-10 08:03:00,29.8,20.5,30.40,SSE,155,12.0,12.0,68,0.00,,,0.00,Wunderground v.1.15,2013-01-10 14:03:00,
2013-01-10 08:04:00,29.8,20.2,30.40,SSE,148,9.0,12.0,67,0.00,,,0.00,Wunderground v.1.15,2013-01-10 14:04:00,
2013-01-10 08:05:00,29.8,20.2,30.40,SE,146,6.0,12.0,67,0.00,,,0.00,Wunderground v.1.15,2013-01-10 14:05:00,
2013-01-10 08:09:00,30.0,20.4,30.40,SE,144,11.0,13.0,67,0.00,,,0.00,Wunderground v.1.15,2013-01-10 14:09:00,
2013-01-10 08:10:00,30.1,20.5,30.40,SSE,157,7.0,13.0,67,0.00,,,0.00,Wunderground v.1.15,2013-01-10 14:10:00,
2013-01-10 08:13:00,30.3,20.3,30.40,SSE,148,6.0,13.0,66,0.00,,,0.00,Wunderground v.1.15,2013-01-10 14:13:00,
2013-01-10 08:14:00,30.3,20.3,30.40,SE,139,6.0,13.0,66,0.00,,,0.00,Wunderground v.1.15,2013-01-10 14:14:00,
2013-01-10 08:15:00,30.3,20.3,30.40,SSE,163,6.0,13.0,66,0.00,,,0.00,Wunderground v.1.15,2013-01-10 14:15:00,
2013-01-10 08:18:00,30.4,20.4,30.40,SSE,157,5.0,8.0,66,0.00,,,0.00,Wunderground v.1.15,2013-01-10 14:18:00,
2013-01-10 08:19:00,30.6,20.2,30.40,SSE,160,5.0,9.0,65,0.00,,,0.00,Wunderground v.1.15,2013-01-10 14:19:00,
2013-01-10 08:20:00,30.6,20.2,30.40,SSE,153,4.0,9.0,65,0.00,,,0.00,Wunderground v.1.15,2013-01-10 14:20:00,
2013-01-10 08:23:00,30.7,20.3,30.40,SSE,148,9.0,9.0,65,0.00,,,0.00,Wunderground v.1.15,2013-01-10 14:23:00,
2013-01-10 08:24:00,30.7,20.3,30.40,SSE,149,6.0,9.0,65,0.00,,,0.00,Wunderground v.1.15,2013-01-10 14:24:00,
2013-01-10 08:25:00,30.9,20.5,30.40,SSE,150,9.0,9.0,65,0.00,,,0.00,Wunderground v.1.15,2013-01-10 14:25:00,
2013-01-10 08:26:00,30.9,20.5,30.40,SSE,167,10.0,10.0,65,0.00,,,0.00,Wunderground v.1.15,2013-01-10 14:26:00,
2013-01-10 08:28:00,31.0,20.6,30.40,SSE,148,5.0,10.0,65,0.00,,,0.00,Wunderground v.1.15,2013-01-10 14:28:00,
2013-01-10 08:30:00,31.2,20.8,30.40,SSE,158,9.0,14.0,65,0.00,,,0.00,Wunderground v.1.15,2013-01-10 14:30:00,
2013-01-10 08:31:00,31.2,20.8,30.40,SSE,157,13.0,14.0,65,0.00,,,0.00,Wunderground v.1.15,2013-01-10 14:31:00,
2013-01-10 08:33:00,31.3,20.9,30.40,SSE,156,12.0,15.0,65,0.00,,,0.00,Wunderground v.1.15,2013-01-10 14:33:00,
2013-01-10 08:34:00,31.3,20.9,30.40,South,169,12.0,15.0,65,0.00,,,0.00,Wunderground v.1.15,2013-01-10 14:34:00,
2013-01-10 08:35:00,31.5,21.4,30.40,SSE,160,7.0,15.0,66,0.00,,,0.00,Wunderground v.1.15,2013-01-10 14:35:00,
2013-01-10 08:39:00,31.6,21.9,30.39,SSE,149,11.0,11.0,67,0.00,,,0.00,Wunderground v.1.15,2013-01-10 14:39:00,
2013-01-10 08:40:00,31.8,22.1,30.39,SSE,159,10.0,11.0,67,0.00,,,0.00,Wunderground v.1.15,2013-01-10 14:40:00,
2013-01-10 08:43:00,31.9,22.5,30.39,SE,145,9.0,13.0,68,0.00,,,0.00,Wunderground v.1.15,2013-01-10 14:43:00,
2013-01-10 08:45:00,32.1,22.7,30.39,SSE,157,6.0,13.0,68,0.00,,,0.00,Wunderground v.1.15,2013-01-10 14:45:00,
2013-01-10 08:48:00,32.1,23.1,30.39,SSE,149,9.0,11.0,69,0.00,,,0.00,Wunderground v.1.15,2013-01-10 14:48:00,
2013-01-10 08:49:00,32.1,23.1,30.39,SSE,156,6.0,11.0,69,0.00,,,0.00,Wunderground v.1.15,2013-01-10 14:49:00,
2013-01-10 08:51:00,32.2,23.5,30.39,SSE,158,9.0,11.0,70,0.00,,,0.00,Wunderground v.1.15,2013-01-10 14:51:00,
2013-01-10 08:54:00,32.4,24.0,30.38,SSE,154,8.0,11.0,71,0.00,,,0.00,Wunderground v.1.15,2013-01-10 14:54:00,
2013-01-10 08:56:00,32.4,24.0,30.38,SE,142,11.0,13.0,71,0.00,,,0.00,Wunderground v.1.15,2013-01-10 14:56:00,
2013-01-10 08:59:00,32.5,24.5,30.38,SE,136,10.0,13.0,72,0.00,,,0.00,Wunderground v.1.15,2013-01-10 14:59:00,
2013-01-10 09:03:00,32.8,25.4,30.38,SSE,161,11.0,13.0,74,0.00,,,0.00,Wunderground v.1.15,2013-01-10 15:03:00,
2013-01-10 09:04:00,32.8,25.4,30.38,SE,136,11.0,13.0,74,0.00,,,0.00,Wunderground v.1.15,2013-01-10 15:04:00,
2013-01-10 09:05:00,32.8,25.4,30.38,SSE,155,9.0,13.0,74,0.00,,,0.00,Wunderground v.1.15,2013-01-10 15:05:00,
2013-01-10 09:08:00,32.9,25.8,30.37,SSE,162,9.0,9.0,75,0.00,,,0.00,Wunderground v.1.15,2013-01-10 15:08:00,
2013-01-10 09:09:00,33.1,26.0,30.37,SSE,148,12.0,16.0,75,0.00,,,0.00,Wunderground v.1.15,2013-01-10 15:09:00,
2013-01-10 09:10:00,33.1,26.0,30.37,SSE,160,10.0,16.0,75,0.00,,,0.00,Wunderground v.1.15,2013-01-10 15:10:00,
2013-01-10 09:13:00,33.2,26.1,30.37,SSE,162,11.0,16.0,75,0.00,,,0.00,Wunderground v.1.15,2013-01-10 15:13:00,
2013-01-10 09:15:00,33.2,26.5,30.37,SE,134,10.0,16.0,76,0.00,,,0.00,Wunderground v.1.15,2013-01-10 15:15:00,
2013-01-10 09:16:00,33.4,26.6,30.37,SE,134,7.0,16.0,76,0.00,,,0.00,Wunderground v.1.15,2013-01-10 15:16:00,
2013-01-10 09:19:00,33.5,26.7,30.37,SSE,152,7.0,10.0,76,0.00,,,0.00,Wunderground v.1.15,2013-01-10 15:19:00,
2013-01-10 09:20:00,33.5,26.7,30.37,South,169,7.0,10.0,76,0.00,,,0.00,Wunderground v.1.15,2013-01-10 15:20:00,
2013-01-10 09:24:00,33.8,27.4,30.36,SE,145,10.0,11.0,77,0.00,,,0.00,Wunderground v.1.15,2013-01-10 15:24:00,
2013-01-10 09:25:00,33.8,27.4,30.36,SE,124,7.0,12.0,77,0.00,,,0.00,Wunderground v.1.15,2013-01-10 15:25:00,
2013-01-10 09:30:00,34.1,27.6,30.36,SSE,159,10.0,14.0,77,0.00,,,0.00,Wunderground v.1.15,2013-01-10 15:30:00,
2013-01-10 09:31:00,34.1,27.6,30.36,SE,140,7.0,14.0,77,0.00,,,0.00,Wunderground v.1.15,2013-01-10 15:31:00,
2013-01-10 09:33:00,34.1,27.6,30.36,SE,140,13.0,14.0,77,0.00,,,0.00,Wunderground v.1.15,2013-01-10 15:33:00,
2013-01-10 09:35:00,34.3,28.2,30.36,ESE,123,10.0,14.0,78,0.00,,,0.00,Wunderground v.1.15,2013-01-10 15:35:00,
2013-01-10 09:38:00,34.4,28.2,30.35,SE,140,5.0,10.0,78,0.00,,,0.00,Wunderground v.1.15,2013-01-10 15:38:00,
2013-01-10 09:39:00,34.4,28.2,30.35,SSE,158,12.0,12.0,78,0.00,,,0.00,Wunderground v.1.15,2013-01-10 15:39:00,
2013-01-10 09:43:00,34.6,28.4,30.35,SSE,154,6.0,12.0,78,0.00,,,0.00,Wunderground v.1.15,2013-01-10 15:43:00,
2013-01-10 09:44:00,34.6,28.4,30.35,South,178,12.0,12.0,78,0.00,,,0.00,Wunderground v.1.15,2013-01-10 15:44:00,
2013-01-10 09:45:00,34.7,28.5,30.35,South,172,6.0,12.0,78,0.00,,,0.00,Wunderground v.1.15,2013-01-10 15:45:00,
2013-01-10 09:48:00,35.0,28.8,30.35,SSE,158,4.0,9.0,78,0.00,,,0.00,Wunderground v.1.15,2013-01-10 15:48:00,
2013-01-10 09:49:00,35.0,28.8,30.35,South,186,12.0,12.0,78,0.00,,,0.00,Wunderground v.1.15,2013-01-10 15:49:00,
2013-01-10 09:50:00,35.2,29.0,30.35,SSE,150,6.0,12.0,78,0.00,,,0.00,Wunderground v.1.15,2013-01-10 15:50:00,
2013-01-10 09:53:00,35.3,29.1,30.35,SE,143,9.0,13.0,78,0.00,,,0.00,Wunderground v.1.15,2013-01-10 15:53:00,
2013-01-10 09:54:00,35.3,29.1,30.35,SSE,161,5.0,13.0,78,0.00,,,0.00,Wunderground v.1.15,2013-01-10 15:54:00,
2013-01-10 09:55:00,35.5,29.3,30.35,SSE,155,5.0,13.0,78,0.00,,,0.00,Wunderground v.1.15,2013-01-10 15:55:00,
2013-01-10 09:58:00,35.6,29.4,30.35,SE,143,7.0,7.0,78,0.00,,,0.00,Wunderground v.1.15,2013-01-10 15:58:00,
2013-01-10 10:00:00,35.6,29.4,30.35,SE,136,5.0,10.0,78,0.00,,,0.00,Wunderground v.1.15,2013-01-10 16:00:00,
2013-01-10 10:03:00,35.8,29.6,30.35,SSE,151,5.0,10.0,78,0.00,,,0.00,Wunderground v.1.15,2013-01-10 16:03:00,
2013-01-10 10:05:00,35.9,29.7,30.35,SE,136,10.0,10.0,78,0.00,,,0.00,Wunderground v.1.15,2013-01-10 16:05:00,
2013-01-10 10:08:00,35.9,29.7,30.34,SSE,167,7.0,8.0,78,0.00,,,0.00,Wunderground v.1.15,2013-01-10 16:08:00,
2013-01-10 10:09:00,35.9,29.7,30.34,SE,130,7.0,10.0,78,0.00,,,0.00,Wunderground v.1.15,2013-01-10 16:09:00,
2013-01-10 10:10:00,35.9,29.7,30.34,SSE,157,8.0,10.0,78,0.00,,,0.00,Wunderground v.1.15,2013-01-10 16:10:00,
2013-01-10 10:11:00,35.9,30.0,30.34,SSE,165,7.0,12.0,79,0.00,,,0.00,Wunderground v.1.15,2013-01-10 16:11:00,
2013-01-10 10:13:00,36.0,30.1,30.34,ESE,123,11.0,12.0,79,0.00,,,0.00,Wunderground v.1.15,2013-01-10 16:13:00,
2013-01-10 10:15:00,36.0,30.1,30.34,SE,141,4.0,12.0,79,0.00,,,0.00,Wunderground v.1.15,2013-01-10 16:15:00,
2013-01-10 10:16:00,36.0,30.1,30.34,SSE,147,7.0,12.0,79,0.00,,,0.00,Wunderground v.1.15,2013-01-10 16:16:00,
2013-01-10 10:18:00,36.2,30.3,30.34,SE,146,9.0,11.0,79,0.00,,,0.00,Wunderground v.1.15,2013-01-10 16:18:00,
2013-01-10 10:23:00,36.3,30.4,30.34,SSE,151,7.0,11.0,79,0.00,,,0.00,Wunderground v.1.15,2013-01-10 16:23:00,
2013-01-10 10:24:00,36.3,30.4,30.34,SSE,165,6.0,11.0,79,0.00,,,0.00,Wunderground v.1.15,2013-01-10 16:24:00,
2013-01-10 10:28:00,36.3,30.7,30.34,SSE,155,11.0,11.0,80,0.00,,,0.00,Wunderground v.1.15,2013-01-10 16:28:00,
2013-01-10 10:29:00,36.3,30.7,30.34,SSE,148,6.0,11.0,80,0.00,,,0.00,Wunderground v.1.15,2013-01-10 16:29:00,
2013-01-10 10:30:00,36.3,30.7,30.34,SSE,148,13.0,13.0,80,0.00,,,0.00,Wunderground v.1.15,2013-01-10 16:30:00,
2013-01-10 10:33:00,36.5,31.2,30.34,SSE,155,9.0,13.0,81,0.00,,,0.00,Wunderground v.1.15,2013-01-10 16:33:00,
2013-01-10 10:34:00,36.5,31.2,30.34,SE,144,12.0,13.0,81,0.00,,,0.00,Wunderground v.1.15,2013-01-10 16:34:00,
2013-01-10 10:35:00,36.5,31.2,30.34,SE,139,11.0,14.0,81,0.00,,,0.00,Wunderground v.1.15,2013-01-10 16:35:00,
2013-01-10 10:40:00,36.6,31.3,30.32,SSE,150,7.0,14.0,81,0.00,,,0.00,Wunderground v.1.15,2013-01-10 16:40:00,
2013-01-10 10:41:00,36.6,31.3,30.32,SSE,153,12.0,14.0,81,0.00,,,0.00,Wunderground v.1.15,2013-01-10 16:41:00,
2013-01-10 10:48:00,36.9,31.6,30.32,SE,141,10.0,10.0,81,0.00,,,0.00,Wunderground v.1.15,2013-01-10 16:48:00,
2013-01-10 10:49:00,36.9,31.6,30.32,SE,141,11.0,11.0,81,0.00,,,0.00,Wunderground v.1.15,2013-01-10 16:49:00,
2013-01-10 10:53:00,37.0,31.4,30.31,SE,125,7.0,16.0,80,0.00,,,0.00,Wunderground v.1.15,2013-01-10 16:53:00,
2013-01-10 10:54:00,37.0,31.4,30.31,SSE,152,7.0,16.0,80,0.00,,,0.00,Wunderground v.1.15,2013-01-10 16:54:00,
2013-01-10 10:55:00,37.0,31.4,30.31,SSE,165,14.0,16.0,80,0.00,,,0.00,Wunderground v.1.15,2013-01-10 16:55:00,
2013-01-10 10:58:00,37.0,31.4,30.31,SSE,155,10.0,13.0,80,0.00,,,0.00,Wunderground v.1.15,2013-01-10 16:58:00,
2013-01-10 11:00:00,37.0,31.4,30.31,SE,146,7.0,13.0,80,0.00,,,0.00,Wunderground v.1.15,2013-01-10 17:00:00,
2013-01-10 11:01:00,37.2,31.6,30.31,SE,144,11.0,13.0,80,0.00,,,0.00,Wunderground v.1.15,2013-01-10 17:01:00,
2013-01-10 11:04:00,37.2,31.6,30.31,SSE,151,8.0,13.0,80,0.00,,,0.00,Wunderground v.1.15,2013-01-10 17:04:00,
2013-01-10 11:05:00,37.2,31.6,30.31,ESE,121,10.0,13.0,80,0.00,,,0.00,Wunderground v.1.15,2013-01-10 17:05:00,
2013-01-10 11:08:00,37.2,31.6,30.30,ESE,119,12.0,12.0,80,0.00,,,0.00,Wunderground v.1.15,2013-01-10 17:08:00,
2013-01-10 11:09:00,37.0,31.4,30.30,SSE,158,6.0,14.0,80,0.00,,,0.00,Wunderground v.1.15,2013-01-10 17:09:00,
2013-01-10 11:10:00,37.0,31.4,30.30,SSE,150,7.0,14.0,80,0.00,,,0.00,Wunderground v.1.15,2013-01-10 17:10:00,
2013-01-10 11:14:00,37.0,31.4,30.30,SSE,160,7.0,14.0,80,0.00,,,0.00,Wunderground v.1.15,2013-01-10 17:14:00,
2013-01-10 11:15:00,37.0,31.4,30.30,SSE,156,10.0,14.0,80,0.00,,,0.00,Wunderground v.1.15,2013-01-10 17:15:00,
2013-01-10 11:16:00,37.0,31.4,30.30,ESE,120,12.0,14.0,80,0.00,,,0.00,Wunderground v.1.15,2013-01-10 17:16:00,
2013-01-10 11:19:00,37.0,31.4,30.30,SSE,153,6.0,10.0,80,0.00,,,0.00,Wunderground v.1.15,2013-01-10 17:19:00,
2013-01-10 11:20:00,37.0,31.4,30.30,SSE,147,11.0,13.0,80,0.00,,,0.00,Wunderground v.1.15,2013-01-10 17:20:00,
2013-01-10 11:23:00,37.2,31.6,30.28,SSE,166,6.0,13.0,80,0.00,,,0.00,Wunderground v.1.15,2013-01-10 17:23:00,
2013-01-10 11:24:00,37.2,31.6,30.28,ESE,118,5.0,13.0,80,0.00,,,0.00,Wunderground v.1.15,2013-01-10 17:24:00,
2013-01-10 11:25:00,37.3,31.7,30.28,SE,138,11.0,13.0,80,0.00,,,0.00,Wunderground v.1.15,2013-01-10 17:25:00,
2013-01-10 11:29:00,37.3,31.4,30.28,SSE,149,9.0,15.0,79,0.00,,,0.00,Wunderground v.1.15,2013-01-10 17:29:00,
2013-01-10 11:30:00,37.3,31.4,30.28,SE,143,7.0,15.0,79,0.00,,,0.00,Wunderground v.1.15,2013-01-10 17:30:00,
2013-01-10 11:31:00,37.3,31.7,30.28,SSE,148,11.0,15.0,80,0.00,,,0.00,Wunderground v.1.15,2013-01-10 17:31:00,
2013-01-10 11:35:00,37.5,31.9,30.28,SSE,158,11.0,17.0,80,0.00,,,0.00,Wunderground v.1.15,2013-01-10 17:35:00,
2013-01-10 11:40:00,37.8,32.2,30.27,SSE,152,13.0,19.0,80,0.00,,,0.00,Wunderground v.1.15,2013-01-10 17:40:00,
2013-01-10 11:43:00,37.8,31.9,30.27,SE,134,13.0,19.0,79,0.00,,,0.00,Wunderground v.1.15,2013-01-10 17:43:00,
2013-01-10 11:46:00,37.9,32.0,30.27,SE,139,15.0,19.0,79,0.00,,,0.00,Wunderground v.1.15,2013-01-10 17:46:00,
2013-01-10 11:47:00,37.9,32.0,30.27,SE,131,10.0,19.0,79,0.00,,,0.00,Wunderground v.1.15,2013-01-10 17:47:00,
2013-01-10 11:49:00,37.9,32.0,30.27,SE,139,12.0,13.0,79,0.00,,,0.00,Wunderground v.1.15,2013-01-10 17:49:00,
2013-01-10 11:51:00,38.0,32.1,30.27,SSE,155,14.0,17.0,79,0.00,,,0.00,Wunderground v.1.15,2013-01-10 17:51:00,
2013-01-10 11:53:00,38.0,31.7,30.25,SSE,148,13.0,17.0,78,0.00,,,0.00,Wunderground v.1.15,2013-01-10 17:53:00,
2013-01-10 11:54:00,38.0,31.7,30.25,SE,144,10.0,17.0,78,0.00,,,0.00,Wunderground v.1.15,2013-01-10 17:54:00,
2013-01-10 11:58:00,38.3,32.0,30.25,SSE,152,10.0,14.0,78,0.00,,,0.00,Wunderground v.1.15,2013-01-10 17:58:00,
2013-01-10 11:59:00,38.3,32.0,30.25,SE,136,7.0,14.0,78,0.00,,,0.00,Wunderground v.1.15,2013-01-10 17:59:00,
2013-01-10 12:00:00,38.5,31.9,30.25,SE,136,11.0,14.0,77,0.00,,,0.00,Wunderground v.1.15,2013-01-10 18:00:00,
2013-01-10 12:04:00,38.6,32.0,30.25,SSE,152,10.0,14.0,77,0.00,,,0.00,Wunderground v.1.15,2013-01-10 18:04:00,
2013-01-10 12:05:00,38.6,31.7,30.25,SSE,153,12.0,15.0,76,0.00,,,0.00,Wunderground v.1.15,2013-01-10 18:05:00,
2013-01-10 12:08:00,38.6,31.7,30.25,SSE,150,8.0,12.0,76,0.00,,,0.00,Wunderground v.1.15,2013-01-10 18:08:00,
2013-01-10 12:10:00,38.8,31.9,30.25,SE,137,11.0,12.0,76,0.00,,,0.00,Wunderground v.1.15,2013-01-10 18:10:00,
2013-01-10 12:11:00,38.9,32.0,30.25,SE,145,8.0,12.0,76,0.00,,,0.00,Wunderground v.1.15,2013-01-10 18:11:00,
2013-01-10 12:14:00,39.1,31.8,30.25,SE,142,10.0,12.0,75,0.00,,,0.00,Wunderground v.1.15,2013-01-10 18:14:00,
2013-01-10 12:15:00,39.1,31.8,30.25,SE,142,17.0,17.0,75,0.00,,,0.00,Wunderground v.1.15,2013-01-10 18:15:00,
2013-01-10 12:18:00,39.2,31.9,30.25,SE,134,11.0,11.0,75,0.00,,,0.00,Wunderground v.1.15,2013-01-10 18:18:00,
2013-01-10 12:19:00,39.3,32.0,30.25,ESE,123,9.0,11.0,75,0.00,,,0.00,Wunderground v.1.15,2013-01-10 18:19:00,
2013-01-10 12:23:00,39.5,31.9,30.25,SE,145,8.0,13.0,74,0.00,,,0.00,Wunderground v.1.15,2013-01-10 18:23:00,
2013-01-10 12:25:00,39.5,31.6,30.23,SE,145,16.0,18.0,73,0.00,,,0.00,Wunderground v.1.15,2013-01-10 18:25:00,
2013-01-10 12:29:00,39.6,31.7,30.23,ESE,122,13.0,13.0,73,0.00,,,0.00,Wunderground v.1.15,2013-01-10 18:29:00,
2013-01-10 12:30:00,39.8,31.5,30.23,SE,141,9.0,13.0,72,0.00,,,0.00,Wunderground v.1.15,2013-01-10 18:30:00,
2013-01-10 12:35:00,39.6,31.0,30.23,SE,139,9.0,17.0,71,0.00,,,0.00,Wunderground v.1.15,2013-01-10 18:35:00,
2013-01-10 12:38:00,39.6,31.0,30.21,SE,145,13.0,13.0,71,0.00,,,0.00,Wunderground v.1.15,2013-01-10 18:38:00,
2013-01-10 12:40:00,39.5,30.5,30.21,SSE,154,7.0,18.0,70,0.00,,,0.00,Wunderground v.1.15,2013-01-10 18:40:00,
2013-01-10 12:41:00,39.5,30.5,30.21,SE,130,17.0,18.0,70,0.00,,,0.00,Wunderground v.1.15,2013-01-10 18:41:00,
2013-01-10 12:44:00,39.5,30.5,30.21,SSE,151,6.0,18.0,70,0.00,,,0.00,Wunderground v.1.15,2013-01-10 18:44:00,
2013-01-10 12:45:00,39.5,30.5,30.21,SSE,150,6.0,18.0,70,0.00,,,0.00,Wunderground v.1.15,2013-01-10 18:45:00,
2013-01-10 12:49:00,39.6,30.6,30.21,SSE,163,7.0,9.0,70,0.00,,,0.00,Wunderground v.1.15,2013-01-10 18:49:00,
2013-01-10 12:50:00,39.6,30.6,30.21,SSE,150,14.0,17.0,70,0.00,,,0.00,Wunderground v.1.15,2013-01-10 18:50:00,
2013-01-10 12:53:00,39.6,30.3,30.20,SSE,152,15.0,17.0,69,0.00,,,0.00,Wunderground v.1.15,2013-01-10 18:53:00,
2013-01-10 12:54:00,39.6,30.3,30.20,SE,133,10.0,17.0,69,0.00,,,0.00,Wunderground v.1.15,2013-01-10 18:54:00,
2013-01-10 12:55:00,39.5,30.2,30.20,SSE,156,12.0,17.0,69,0.00,,,0.00,Wunderground v.1.15,2013-01-10 18:55:00,
2013-01-10 12:58:00,39.5,30.2,30.20,SE,140,11.0,13.0,69,0.00,,,0.00,Wunderground v.1.15,2013-01-10 18:58:00,
2013-01-10 12:59:00,39.5,30.2,30.20,SSE,154,13.0,14.0,69,0.00,,,0.00,Wunderground v.1.15,2013-01-10 18:59:00,
2013-01-10 13:00:00,39.5,29.8,30.20,SSE,150,9.0,14.0,68,0.00,,,0.00,Wunderground v.1.15,2013-01-10 19:00:00,
2013-01-10 13:03:00,39.5,30.2,30.20,SSE,160,10.0,14.0,69,0.00,,,0.00,Wunderground v.1.15,2013-01-10 19:03:00,
2013-01-10 13:04:00,39.5,30.2,30.20,SSE,160,8.0,14.0,69,0.00,,,0.00,Wunderground v.1.15,2013-01-10 19:04:00,
2013-01-10 13:05:00,39.5,30.2,30.20,SE,143,16.0,16.0,69,0.00,,,0.00,Wunderground v.1.15,2013-01-10 19:05:00,
2013-01-10 13:08:00,39.5,29.8,30.20,SSE,148,9.0,13.0,68,0.00,,,0.00,Wunderground v.1.15,2013-01-10 19:08:00,
2013-01-10 13:10:00,39.5,29.8,30.20,SE,131,9.0,13.0,68,0.00,,,0.00,Wunderground v.1.15,2013-01-10 19:10:00,
2013-01-10 13:11:00,39.5,29.8,30.20,SSE,148,8.0,13.0,68,0.00,,,0.00,Wunderground v.1.15,2013-01-10 19:11:00,
2013-01-10 13:14:00,39.5,29.8,30.20,SSE,154,6.0,13.0,68,0.00,,,0.00,Wunderground v.1.15,2013-01-10 19:14:00,
2013-01-10 13:18:00,39.6,30.3,30.20,SE,142,10.0,10.0,69,0.00,,,0.00,Wunderground v.1.15,2013-01-10 19:18:00,
2013-01-10 13:20:00,39.8,30.5,30.20,SE,139,5.0,12.0,69,0.00,,,0.00,Wunderground v.1.15,2013-01-10 19:20:00,
2013-01-10 13:21:00,39.8,30.5,30.20,ESE,106,6.0,12.0,69,0.00,,,0.00,Wunderground v.1.15,2013-01-10 19:21:00,
2013-01-10 13:24:00,39.9,30.2,30.18,ESE,116,5.0,15.0,68,0.00,,,0.00,Wunderground v.1.15,2013-01-10 19:24:00,
2013-01-10 13:25:00,39.9,30.5,30.18,SE,135,9.0,15.0,69,0.00,,,0.00,Wunderground v.1.15,2013-01-10 19:25:00,
2013-01-10 13:26:00,39.9,30.2,30.18,SE,129,10.0,15.0,68,0.00,,,0.00,Wunderground v.1.15,2013-01-10 19:26:00,
2013-01-10 13:28:00,40.1,30.4,30.18,SE,136,7.0,8.0,68,0.00,,,0.00,Wunderground v.1.15,2013-01-10 19:28:00,
2013-01-10 13:30:00,40.1,30.4,30.18,SE,127,5.0,11.0,68,0.00,,,0.00,Wunderground v.1.15,2013-01-10 19:30:00,
2013-01-10 13:33:00,40.2,30.5,30.18,SSE,148,14.0,14.0,68,0.00,,,0.00,Wunderground v.1.15,2013-01-10 19:33:00,
2013-01-10 13:36:00,40.3,30.6,30.18,SSE,149,10.0,15.0,68,0.00,,,0.00,Wunderground v.1.15,2013-01-10 19:36:00,
2013-01-10 13:39:00,40.6,30.5,30.17,SE,133,6.0,13.0,67,0.00,,,0.00,Wunderground v.1.15,2013-01-10 19:39:00,
2013-01-10 13:44:00,40.5,30.0,30.17,SSE,155,9.0,13.0,66,0.00,,,0.00,Wunderground v.1.15,2013-01-10 19:44:00,
2013-01-10 13:45:00,40.5,30.0,30.17,SE,129,12.0,13.0,66,0.00,,,0.00,Wunderground v.1.15,2013-01-10 19:45:00,
2013-01-10 13:49:00,40.3,29.8,30.17,SSE,148,11.0,12.0,66,0.00,,,0.00,Wunderground v.1.15,2013-01-10 19:49:00,
2013-01-10 13:50:00,40.3,29.8,30.17,SE,141,10.0,14.0,66,0.00,,,0.00,Wunderground v.1.15,2013-01-10 19:50:00,
2013-01-10 13:53:00,40.3,30.2,30.17,SSE,151,10.0,14.0,67,0.00,,,0.00,Wunderground v.1.15,2013-01-10 19:53:00,
2013-01-10 13:54:00,40.3,30.2,30.17,SE,142,11.0,14.0,67,0.00,,,0.00,Wunderground v.1.15,2013-01-10 19:54:00,
2013-01-10 13:57:00,40.3,30.2,30.17,SSE,155,8.0,14.0,67,0.00,,,0.00,Wunderground v.1.15,2013-01-10 19:57:00,
2013-01-10 13:59:00,40.3,30.2,30.17,SE,146,6.0,10.0,67,0.00,,,0.00,Wunderground v.1.15,2013-01-10 19:59:00,
2013-01-10 14:00:00,40.3,30.2,30.17,SE,141,4.0,10.0,67,0.00,,,0.00,Wunderground v.1.15,2013-01-10 20:00:00,
2013-01-10 14:04:00,40.2,29.7,30.17,SE,140,7.0,10.0,66,0.00,,,0.00,Wunderground v.1.15,2013-01-10 20:04:00,
2013-01-10 14:05:00,40.2,29.7,30.17,SE,141,7.0,10.0,66,0.00,,,0.00,Wunderground v.1.15,2013-01-10 20:05:00,
2013-01-10 14:10:00,40.1,30.0,30.16,SE,139,6.0,9.0,67,0.00,,,0.00,Wunderground v.1.15,2013-01-10 20:10:00,
2013-01-10 14:11:00,40.1,30.0,30.16,SSE,151,5.0,9.0,67,0.00,,,0.00,Wunderground v.1.15,2013-01-10 20:11:00,
2013-01-10 14:13:00,40.1,30.0,30.16,SE,124,6.0,9.0,67,0.00,,,0.00,Wunderground v.1.15,2013-01-10 20:13:00,
2013-01-10 14:18:00,39.9,29.8,30.16,SE,129,7.0,7.0,67,0.00,,,0.00,Wunderground v.1.15,2013-01-10 20:18:00,
2013-01-10 14:19:00,39.9,29.8,30.16,SE,137,8.0,12.0,67,0.00,,,0.00,Wunderground v.1.15,2013-01-10 20:19:00,
2013-01-10 14:23:00,39.8,29.7,30.15,ESE,115,9.0,15.0,67,0.00,,,0.00,Wunderground v.1.15,2013-01-10 20:23:00,
2013-01-10 14:24:00,39.8,29.7,30.15,ESE,122,11.0,15.0,67,0.00,,,0.00,Wunderground v.1.15,2013-01-10 20:24:00,
2013-01-10 14:26:00,39.6,29.5,30.15,SE,146,6.0,15.0,67,0.00,,,0.00,Wunderground v.1.15,2013-01-10 20:26:00,
2013-01-10 14:28:00,39.6,29.5,30.15,SE,142,11.0,11.0,67,0.00,,,0.00,Wunderground v.1.15,2013-01-10 20:28:00,
2013-01-10 14:29:00,39.6,29.5,30.15,SE,141,11.0,11.0,67,0.00,,,0.00,Wunderground v.1.15,2013-01-10 20:29:00,
2013-01-10 14:34:00,39.6,29.5,30.15,SE,130,11.0,11.0,67,0.00,,,0.00,Wunderground v.1.15,2013-01-10 20:34:00,
2013-01-10 14:39:00,39.5,29.4,30.15,ESE,122,10.0,19.0,67,0.00,,,0.00,Wunderground v.1.15,2013-01-10 20:39:00,
2013-01-10 14:40:00,39.5,29.4,30.15,ESE,120,11.0,19.0,67,0.00,,,0.00,Wunderground v.1.15,2013-01-10 20:40:00,
2013-01-10 14:44:00,39.3,29.3,30.15,SE,139,7.0,19.0,67,0.00,,,0.00,Wunderground v.1.15,2013-01-10 20:44:00,
2013-01-10 14:45:00,39.3,29.3,30.15,SE,127,6.0,19.0,67,0.00,,,0.00,Wunderground v.1.15,2013-01-10 20:45:00,
2013-01-10 14:46:00,39.3,29.3,30.15,ESE,123,6.0,19.0,67,0.00,,,0.00,Wunderground v.1.15,2013-01-10 20:46:00,
2013-01-10 14:50:00,39.3,29.3,30.15,SSE,160,10.0,11.0,67,0.00,,,0.00,Wunderground v.1.15,2013-01-10 20:50:00,
2013-01-10 14:53:00,39.3,29.6,30.15,SE,139,7.0,11.0,68,0.00,,,0.00,Wunderground v.1.15,2013-01-10 20:53:00,
2013-01-10 14:58:00,39.2,29.5,30.15,SE,140,13.0,13.0,68,0.00,,,0.00,Wunderground v.1.15,2013-01-10 20:58:00,
2013-01-10 14:59:00,39.1,29.8,30.15,SE,138,7.0,16.0,69,0.00,,,0.00,Wunderground v.1.15,2013-01-10 20:59:00,
2013-01-10 15:03:00,38.9,29.6,30.15,SSE,150,16.0,16.0,69,0.00,,,0.00,Wunderground v.1.15,2013-01-10 21:03:00,
2013-01-10 15:04:00,38.9,29.6,30.15,SE,132,9.0,16.0,69,0.00,,,0.00,Wunderground v.1.15,2013-01-10 21:04:00,
2013-01-10 15:05:00,38.9,29.6,30.15,SE,146,9.0,16.0,69,0.00,,,0.00,Wunderground v.1.15,2013-01-10 21:05:00,
2013-01-10 15:09:00,38.9,29.9,30.15,SSE,149,9.0,11.0,70,0.00,,,0.00,Wunderground v.1.15,2013-01-10 21:09:00,
2013-01-10 15:10:00,38.8,29.8,30.15,SSE,152,5.0,12.0,70,0.00,,,0.00,Wunderground v.1.15,2013-01-10 21:10:00,
2013-01-10 15:14:00,38.8,29.8,30.15,ESE,116,5.0,12.0,70,0.00,,,0.00,Wunderground v.1.15,2013-01-10 21:14:00,
2013-01-10 15:15:00,38.8,29.8,30.15,SSE,150,8.0,12.0,70,0.00,,,0.00,Wunderground v.1.15,2013-01-10 21:15:00,
2013-01-10 15:19:00,38.6,30.0,30.15,SE,125,5.0,8.0,71,0.00,,,0.00,Wunderground v.1.15,2013-01-10 21:19:00,
2013-01-10 15:20:00,38.6,30.0,30.15,SE,133,9.0,9.0,71,0.00,,,0.00,Wunderground v.1.15,2013-01-10 21:20:00,
2013-01-10 15:24:00,38.6,30.0,30.14,SE,127,12.0,17.0,71,0.00,,,0.00,Wunderground v.1.15,2013-01-10 21:24:00,
2013-01-10 15:28:00,38.5,30.3,30.14,SSE,153,11.0,11.0,72,0.00,,,0.00,Wunderground v.1.15,2013-01-10 21:28:00,
2013-01-10 15:29:00,38.5,30.3,30.14,SE,146,5.0,11.0,72,0.00,,,0.00,Wunderground v.1.15,2013-01-10 21:29:00,
2013-01-10 15:33:00,38.3,30.4,30.14,ESE,120,6.0,11.0,73,0.00,,,0.00,Wunderground v.1.15,2013-01-10 21:33:00,
2013-01-10 15:34:00,38.3,30.4,30.14,SE,127,9.0,11.0,73,0.00,,,0.00,Wunderground v.1.15,2013-01-10 21:34:00,
2013-01-10 15:38:00,38.2,30.6,30.13,SE,143,8.0,8.0,74,0.00,,,0.00,Wunderground v.1.15,2013-01-10 21:38:00,
2013-01-10 15:40:00,38.2,30.6,30.13,ESE,117,6.0,15.0,74,0.00,,,0.00,Wunderground v.1.15,2013-01-10 21:40:00,
2013-01-10 15:43:00,38.0,30.4,30.13,ESE,117,8.0,15.0,74,0.00,,,0.00,Wunderground v.1.15,2013-01-10 21:43:00,
2013-01-10 15:44:00,38.0,30.8,30.13,SSE,158,9.0,15.0,75,0.00,,,0.00,Wunderground v.1.15,2013-01-10 21:44:00,
2013-01-10 15:45:00,38.0,30.8,30.13,SE,136,13.0,15.0,75,0.00,,,0.00,Wunderground v.1.15,2013-01-10 21:45:00,
2013-01-10 15:48:00,38.0,30.8,30.13,SSE,149,5.0,10.0,75,0.00,,,0.00,Wunderground v.1.15,2013-01-10 21:48:00,
2013-01-10 15:50:00,38.0,30.8,30.13,SE,124,14.0,16.0,75,0.00,,,0.00,Wunderground v.1.15,2013-01-10 21:50:00,
2013-01-10 15:53:00,37.9,30.7,30.13,SSE,152,8.0,16.0,75,0.00,,,0.00,Wunderground v.1.15,2013-01-10 21:53:00,
2013-01-10 15:55:00,37.9,30.7,30.13,SE,125,6.0,16.0,75,0.00,,,0.00,Wunderground v.1.15,2013-01-10 21:55:00,
2013-01-10 15:58:00,37.9,31.0,30.13,SE,126,8.0,10.0,76,0.00,,,0.00,Wunderground v.1.15,2013-01-10 21:58:00,
2013-01-10 15:59:00,37.9,31.0,30.13,SE,145,13.0,13.0,76,0.00,,,0.00,Wunderground v.1.15,2013-01-10 21:59:00,
2013-01-10 16:01:00,37.9,31.0,30.13,SSE,163,5.0,13.0,76,0.00,,,0.00,Wunderground v.1.15,2013-01-10 22:01:00,
2013-01-10 16:03:00,37.8,30.9,30.13,SE,135,8.0,13.0,76,0.00,,,0.00,Wunderground v.1.15,2013-01-10 22:03:00,
2013-01-10 16:04:00,37.8,30.9,30.13,SE,139,7.0,13.0,76,0.00,,,0.00,Wunderground v.1.15,2013-01-10 22:04:00,
2013-01-10 16:08:00,37.8,30.6,30.13,South,169,10.0,13.0,75,0.00,,,0.00,Wunderground v.1.15,2013-01-10 22:08:00,
2013-01-10 16:09:00,37.8,30.6,30.13,SE,131,7.0,13.0,75,0.00,,,0.00,Wunderground v.1.15,2013-01-10 22:09:00,
2013-01-10 16:10:00,37.8,30.6,30.13,SE,143,9.0,13.0,75,0.00,,,0.00,Wunderground v.1.15,2013-01-10 22:10:00,
2013-01-10 16:14:00,37.8,30.6,30.13,SE,130,6.0,13.0,75,0.00,,,0.00,Wunderground v.1.15,2013-01-10 22:14:00,
2013-01-10 16:15:00,37.8,30.6,30.13,SE,130,5.0,13.0,75,0.00,,,0.00,Wunderground v.1.15,2013-01-10 22:15:00,
2013-01-10 16:20:00,37.8,30.6,30.13,SE,135,11.0,14.0,75,0.00,,,0.00,Wunderground v.1.15,2013-01-10 22:20:00,
2013-01-10 16:21:00,37.8,30.6,30.13,SSE,159,12.0,14.0,75,0.00,,,0.00,Wunderground v.1.15,2013-01-10 22:21:00,
2013-01-10 16:25:00,37.8,30.6,30.12,SE,142,7.0,14.0,75,0.00,,,0.00,Wunderground v.1.15,2013-01-10 22:25:00,
2013-01-10 16:26:00,37.8,30.6,30.12,SE,141,12.0,14.0,75,0.00,,,0.00,Wunderground v.1.15,2013-01-10 22:26:00,
2013-01-10 16:30:00,37.8,30.6,30.12,SE,144,6.0,12.0,75,0.00,,,0.00,Wunderground v.1.15,2013-01-10 22:30:00,
2013-01-10 16:34:00,37.8,30.6,30.12,ESE,114,7.0,12.0,75,0.00,,,0.00,Wunderground v.1.15,2013-01-10 22:34:00,
2013-01-10 16:35:00,37.8,30.6,30.12,ESE,120,4.0,12.0,75,0.00,,,0.00,Wunderground v.1.15,2013-01-10 22:35:00,
2013-01-10 16:39:00,37.8,30.6,30.10,SSE,148,9.0,14.0,75,0.00,,,0.00,Wunderground v.1.15,2013-01-10 22:39:00,
2013-01-10 16:44:00,37.8,30.6,30.10,ESE,122,9.0,14.0,75,0.00,,,0.00,Wunderground v.1.15,2013-01-10 22:44:00,
2013-01-10 16:45:00,37.8,30.6,30.10,SSE,155,5.0,14.0,75,0.00,,,0.00,Wunderground v.1.15,2013-01-10 22:45:00,
2013-01-10 16:49:00,37.8,30.6,30.10,SE,129,11.0,13.0,75,0.00,,,0.00,Wunderground v.1.15,2013-01-10 22:49:00,
2013-01-10 16:50:00,37.8,30.6,30.10,SSE,158,9.0,13.0,75,0.00,,,0.00,Wunderground v.1.15,2013-01-10 22:50:00,
2013-01-10 16:55:00,37.8,30.9,30.10,ESE,120,15.0,17.0,76,0.00,,,0.00,Wunderground v.1.15,2013-01-10 22:55:00,
2013-01-10 17:00:00,37.8,30.9,30.10,SE,139,9.0,13.0,76,0.00,,,0.00,Wunderground v.1.15,2013-01-10 23:00:00,
2013-01-10 17:01:00,37.8,30.9,30.10,SE,141,18.0,18.0,76,0.00,,,0.00,Wunderground v.1.15,2013-01-10 23:01:00,
2013-01-10 17:02:00,37.8,30.9,30.10,SE,128,7.0,18.0,76,0.00,,,0.00,Wunderground v.1.15,2013-01-10 23:02:00,
2013-01-10 17:06:00,37.6,31.0,30.10,SE,141,14.0,18.0,77,0.00,,,0.00,Wunderground v.1.15,2013-01-10 23:06:00,
2013-01-10 17:08:00,37.6,31.0,30.10,SE,132,9.0,10.0,77,0.00,,,0.00,Wunderground v.1.15,2013-01-10 23:08:00,
2013-01-10 17:09:00,37.6,31.0,30.10,SE,145,8.0,10.0,77,0.00,,,0.00,Wunderground v.1.15,2013-01-10 23:09:00,
2013-01-10 17:13:00,37.6,31.4,30.10,SE,124,8.0,16.0,78,0.00,,,0.00,Wunderground v.1.15,2013-01-10 23:13:00,
2013-01-10 17:14:00,37.5,31.3,30.10,SE,129,14.0,16.0,78,0.00,,,0.00,Wunderground v.1.15,2013-01-10 23:14:00,
2013-01-10 17:15:00,37.5,31.3,30.10,SE,131,11.0,16.0,78,0.00,,,0.00,Wunderground v.1.15,2013-01-10 23:15:00,
2013-01-10 17:19:00,37.5,31.3,30.10,SSE,156,13.0,17.0,78,0.00,,,0.00,Wunderground v.1.15,2013-01-10 23:19:00,
2013-01-10 17:21:00,37.5,31.6,30.10,ESE,110,11.0,17.0,79,0.00,,,0.00,Wunderground v.1.15,2013-01-10 23:21:00,
2013-01-10 17:24:00,37.3,31.4,30.09,SE,124,11.0,17.0,79,0.00,,,0.00,Wunderground v.1.15,2013-01-10 23:24:00,
2013-01-10 17:28:00,37.3,31.7,30.09,ESE,120,13.0,13.0,80,0.00,,,0.00,Wunderground v.1.15,2013-01-10 23:28:00,
2013-01-10 17:29:00,37.2,31.6,30.09,SE,127,16.0,16.0,80,0.00,,,0.00,Wunderground v.1.15,2013-01-10 23:29:00,
2013-01-10 17:33:00,37.2,31.6,30.09,SSE,150,6.0,16.0,80,0.00,,,0.01,Wunderground v.1.15,2013-01-10 23:33:00,
2013-01-10 17:34:00,37.2,31.6,30.09,SSE,149,6.0,16.0,80,0.00,,,0.01,Wunderground v.1.15,2013-01-10 23:34:00,
2013-01-10 17:38:00,37.2,31.9,30.09,SE,129,12.0,13.0,81,0.00,,,0.01,Wunderground v.1.15,2013-01-10 23:38:00,
2013-01-10 17:40:00,37.2,31.9,30.09,SE,137,9.0,13.0,81,0.00,,,0.01,Wunderground v.1.15,2013-01-10 23:40:00,
2013-01-10 17:44:00,37.0,32.0,30.09,SE,138,9.0,14.0,82,0.00,,,0.01,Wunderground v.1.15,2013-01-10 23:44:00,
2013-01-10 17:45:00,37.0,32.0,30.09,ESE,123,11.0,14.0,82,0.05,,,0.01,Wunderground v.1.15,2013-01-10 23:45:00,
2013-01-10 17:49:00,36.9,32.2,30.09,SE,129,8.0,13.0,83,0.05,,,0.02,Wunderground v.1.15,2013-01-10 23:49:00,
2013-01-10 17:53:00,36.9,32.2,30.09,ESE,122,10.0,14.0,83,0.05,,,0.02,Wunderground v.1.15,2013-01-10 23:53:00,
2013-01-10 17:54:00,36.9,32.5,30.07,SE,145,13.0,21.0,84,0.05,,,0.02,Wunderground v.1.15,2013-01-10 23:54:00,
2013-01-10 17:58:00,36.8,32.4,30.07,East,98,11.0,11.0,84,0.04,,,0.02,Wunderground v.1.15,2013-01-10 23:58:00,
2013-01-10 18:01:00,36.8,32.7,30.07,SE,141,6.0,14.0,85,0.04,,,0.02,Wunderground v.1.15,2013-01-11 00:01:00,
2013-01-10 18:03:00,36.8,32.7,30.07,ESE,115,17.0,17.0,85,0.00,,,0.02,Wunderground v.1.15,2013-01-11 00:03:00,
2013-01-10 18:04:00,36.8,32.7,30.07,SE,130,12.0,17.0,85,0.00,,,0.02,Wunderground v.1.15,2013-01-11 00:04:00,
2013-01-10 18:08:00,36.6,32.8,30.06,ESE,103,9.0,10.0,86,0.00,,,0.02,Wunderground v.1.15,2013-01-11 00:08:00,
2013-01-10 18:09:00,36.6,32.8,30.06,SE,136,7.0,12.0,86,0.00,,,0.02,Wunderground v.1.15,2013-01-11 00:09:00,
2013-01-10 18:11:00,36.6,32.8,30.06,SE,124,12.0,12.0,86,0.00,,,0.02,Wunderground v.1.15,2013-01-11 00:11:00,
2013-01-10 18:14:00,36.6,32.8,30.06,ESE,106,9.0,15.0,86,0.00,,,0.02,Wunderground v.1.15,2013-01-11 00:14:00,
2013-01-10 18:15:00,36.6,32.8,30.06,SE,125,13.0,15.0,86,0.00,,,0.02,Wunderground v.1.15,2013-01-11 00:15:00,
2013-01-10 18:18:00,36.6,32.8,30.06,East,91,7.0,10.0,86,0.00,,,0.02,Wunderground v.1.15,2013-01-11 00:18:00,
2013-01-10 18:19:00,36.6,32.8,30.06,SE,128,6.0,11.0,86,0.00,,,0.02,Wunderground v.1.15,2013-01-11 00:19:00,
2013-01-10 18:23:00,36.6,33.1,30.04,SE,146,11.0,15.0,87,0.00,,,0.02,Wunderground v.1.15,2013-01-11 00:23:00,
2013-01-10 18:24:00,36.6,33.1,30.04,SE,134,11.0,15.0,87,0.00,,,0.02,Wunderground v.1.15,2013-01-11 00:24:00,
2013-01-10 18:29:00,36.5,33.0,30.04,SE,127,18.0,18.0,87,0.00,,,0.03,Wunderground v.1.15,2013-01-11 00:29:00,
2013-01-10 18:34:00,36.5,33.3,30.04,ESE,117,10.0,18.0,88,0.00,,,0.03,Wunderground v.1.15,2013-01-11 00:34:00,
2013-01-10 18:35:00,36.5,33.3,30.04,SE,127,11.0,18.0,88,0.00,,,0.03,Wunderground v.1.15,2013-01-11 00:35:00,
2013-01-10 18:36:00,36.5,33.3,30.04,ESE,118,8.0,18.0,88,0.00,,,0.03,Wunderground v.1.15,2013-01-11 00:36:00,
2013-01-10 18:40:00,36.5,33.3,30.04,SE,128,13.0,13.0,88,0.05,,,0.04,Wunderground v.1.15,2013-01-11 00:40:00,
2013-01-10 18:43:00,36.6,33.4,30.04,ESE,122,3.0,13.0,88,0.05,,,0.04,Wunderground v.1.15,2013-01-11 00:43:00,
2013-01-10 18:45:00,36.6,33.4,30.04,SE,140,13.0,16.0,88,0.05,,,0.04,Wunderground v.1.15,2013-01-11 00:45:00,
2013-01-10 18:48:00,36.6,33.4,30.04,SE,127,5.0,9.0,88,0.05,,,0.04,Wunderground v.1.15,2013-01-11 00:48:00,
2013-01-10 18:51:00,36.6,33.4,30.04,SE,135,8.0,12.0,88,0.05,,,0.04,Wunderground v.1.15,2013-01-11 00:51:00,
2013-01-10 18:52:00,36.6,33.4,30.04,ESE,120,12.0,12.0,88,0.04,,,0.04,Wunderground v.1.15,2013-01-11 00:52:00,
2013-01-10 18:53:00,36.6,33.4,30.02,ESE,121,7.0,12.0,88,0.04,,,0.04,Wunderground v.1.15,2013-01-11 00:53:00,
2013-01-10 18:58:00,36.8,33.6,30.02,SE,131,9.0,9.0,88,0.00,,,0.04,Wunderground v.1.15,2013-01-11 00:58:00,
2013-01-10 19:03:00,36.8,33.3,30.02,SE,137,5.0,13.0,87,0.00,,,0.04,Wunderground v.1.15,2013-01-11 01:03:00,
2013-01-10 19:04:00,36.8,33.3,30.02,ESE,120,4.0,13.0,87,0.00,,,0.04,Wunderground v.1.15,2013-01-11 01:04:00,
2013-01-10 19:09:00,36.8,33.3,30.01,SE,127,12.0,12.0,87,0.00,,,0.04,Wunderground v.1.15,2013-01-11 01:09:00,
2013-01-10 19:10:00,36.8,33.3,30.01,SE,140,10.0,13.0,87,0.00,,,0.04,Wunderground v.1.15,2013-01-11 01:10:00,
2013-01-10 19:14:00,36.6,33.4,30.01,SE,131,12.0,14.0,88,0.00,,,0.04,Wunderground v.1.15,2013-01-11 01:14:00,
2013-01-10 19:15:00,36.6,33.4,30.01,SSE,147,9.0,15.0,88,0.00,,,0.04,Wunderground v.1.15,2013-01-11 01:15:00,
2013-01-10 19:18:00,36.5,33.3,30.01,SSE,148,9.0,10.0,88,0.00,,,0.04,Wunderground v.1.15,2013-01-11 01:18:00,
2013-01-10 19:19:00,36.5,33.3,30.01,SE,132,7.0,11.0,88,0.00,,,0.04,Wunderground v.1.15,2013-01-11 01:19:00,
2013-01-10 19:21:00,36.5,33.6,30.01,SSE,147,10.0,14.0,89,0.00,,,0.05,Wunderground v.1.15,2013-01-11 01:21:00,
2013-01-10 19:23:00,36.5,33.6,30.02,SE,141,4.0,14.0,89,0.00,,,0.05,Wunderground v.1.15,2013-01-11 01:23:00,
2013-01-10 19:24:00,36.3,33.4,30.02,SSE,161,4.0,14.0,89,0.00,,,0.05,Wunderground v.1.15,2013-01-11 01:24:00,
2013-01-10 19:28:00,36.3,33.6,30.02,SE,135,5.0,8.0,90,0.00,,,0.05,Wunderground v.1.15,2013-01-11 01:28:00,
2013-01-10 19:30:00,36.2,33.5,30.02,SE,145,5.0,11.0,90,0.00,,,0.05,Wunderground v.1.15,2013-01-11 01:30:00,
2013-01-10 19:31:00,36.2,33.5,30.02,SE,127,9.0,11.0,90,0.00,,,0.05,Wunderground v.1.15,2013-01-11 01:31:00,
2013-01-10 19:34:00,36.2,33.5,30.02,SE,129,11.0,14.0,90,0.05,,,0.06,Wunderground v.1.15,2013-01-11 01:34:00,
2013-01-10 19:36:00,36.2,33.5,30.02,SE,143,6.0,14.0,90,0.05,,,0.06,Wunderground v.1.15,2013-01-11 01:36:00,
2013-01-10 19:38:00,36.0,33.4,30.00,SE,129,6.0,8.0,90,0.05,,,0.06,Wunderground v.1.15,2013-01-11 01:38:00,
2013-01-10 19:39:00,36.0,33.6,30.00,SSE,158,7.0,13.0,91,0.05,,,0.06,Wunderground v.1.15,2013-01-11 01:39:00,
2013-01-10 19:43:00,36.0,33.6,30.00,SE,143,7.0,18.0,91,0.05,,,0.06,Wunderground v.1.15,2013-01-11 01:43:00,
2013-01-10 19:44:00,36.0,33.6,30.00,South,172,11.0,18.0,91,0.05,,,0.06,Wunderground v.1.15,2013-01-11 01:44:00,
2013-01-10 19:45:00,36.0,33.6,30.00,SE,134,14.0,18.0,91,0.05,,,0.06,Wunderground v.1.15,2013-01-11 01:45:00,
2013-01-10 19:50:00,36.0,33.6,30.00,SSE,150,12.0,22.0,91,0.04,,,0.06,Wunderground v.1.15,2013-01-11 01:50:00,
2013-01-10 19:51:00,36.0,33.6,30.00,SSE,155,16.0,22.0,91,0.00,,,0.06,Wunderground v.1.15,2013-01-11 01:51:00,
2013-01-10 19:53:00,36.0,33.6,29.99,SE,139,11.0,22.0,91,0.00,,,0.06,Wunderground v.1.15,2013-01-11 01:53:00,
2013-01-10 19:55:00,36.0,33.6,29.99,SE,146,10.0,22.0,91,0.00,,,0.06,Wunderground v.1.15,2013-01-11 01:55:00,
2013-01-10 19:58:00,36.0,33.9,29.99,SSE,151,12.0,13.0,92,0.00,,,0.06,Wunderground v.1.15,2013-01-11 01:58:00,
2013-01-10 19:59:00,36.0,33.9,29.99,SSE,151,14.0,14.0,92,0.00,,,0.06,Wunderground v.1.15,2013-01-11 01:59:00,
2013-01-10 20:01:00,36.0,33.9,29.99,SE,143,11.0,17.0,92,0.00,,,0.07,Wunderground v.1.15,2013-01-11 02:01:00,
2013-01-10 20:03:00,36.0,33.9,29.99,SE,129,10.0,17.0,92,0.00,,,0.07,Wunderground v.1.15,2013-01-11 02:03:00,
2013-01-10 20:04:00,36.0,33.9,29.99,SSE,165,12.0,17.0,92,0.00,,,0.07,Wunderground v.1.15,2013-01-11 02:04:00,
2013-01-10 20:08:00,36.0,33.9,29.98,SE,145,12.0,15.0,92,0.00,,,0.07,Wunderground v.1.15,2013-01-11 02:08:00,
2013-01-10 20:09:00,36.0,33.9,29.98,SSE,164,12.0,15.0,92,0.00,,,0.07,Wunderground v.1.15,2013-01-11 02:09:00,
2013-01-10 20:14:00,35.9,33.8,29.98,ESE,111,14.0,15.0,92,0.00,,,0.07,Wunderground v.1.15,2013-01-11 02:14:00,
2013-01-10 20:15:00,35.9,33.8,29.98,SSE,166,12.0,15.0,92,0.00,,,0.07,Wunderground v.1.15,2013-01-11 02:15:00,
2013-01-10 20:20:00,35.9,33.8,29.98,SSE,151,15.0,15.0,92,0.00,,,0.07,Wunderground v.1.15,2013-01-11 02:20:00,
2013-01-10 20:21:00,35.9,34.1,29.98,ESE,108,7.0,21.0,93,0.00,,,0.07,Wunderground v.1.15,2013-01-11 02:21:00,
2013-01-10 20:25:00,35.9,34.1,29.95,SSE,151,7.0,21.0,93,0.00,,,0.07,Wunderground v.1.15,2013-01-11 02:25:00,
2013-01-10 20:28:00,35.9,34.1,29.95,SSE,150,6.0,12.0,93,0.00,,,0.07,Wunderground v.1.15,2013-01-11 02:28:00,
2013-01-10 20:30:00,35.9,34.1,29.95,ESE,118,9.0,15.0,93,0.00,,,0.08,Wunderground v.1.15,2013-01-11 02:30:00,
2013-01-10 20:33:00,35.9,34.1,29.95,SSE,153,11.0,17.0,93,0.00,,,0.08,Wunderground v.1.15,2013-01-11 02:33:00,
2013-01-10 20:35:00,35.9,34.1,29.95,SE,141,17.0,21.0,93,0.00,,,0.08,Wunderground v.1.15,2013-01-11 02:35:00,
2013-01-10 20:39:00,35.9,34.1,29.95,SE,146,5.0,15.0,93,0.06,,,0.09,Wunderground v.1.15,2013-01-11 02:39:00,
2013-01-10 20:44:00,35.9,34.3,29.95,ESE,111,10.0,15.0,94,0.06,,,0.09,Wunderground v.1.15,2013-01-11 02:44:00,
2013-01-10 20:45:00,35.9,34.3,29.95,SE,140,13.0,18.0,94,0.11,,,0.10,Wunderground v.1.15,2013-01-11 02:45:00,
2013-01-10 20:49:00,35.9,34.3,29.95,SE,141,11.0,11.0,94,0.11,,,0.10,Wunderground v.1.15,2013-01-11 02:49:00,
2013-01-10 20:50:00,35.9,34.3,29.95,SE,128,6.0,11.0,94,0.10,,,0.10,Wunderground v.1.15,2013-01-11 02:50:00,
2013-01-10 20:54:00,35.9,34.3,29.94,SSE,161,5.0,11.0,94,0.08,,,0.11,Wunderground v.1.15,2013-01-11 02:54:00,
2013-01-10 20:56:00,35.9,34.3,29.94,SSE,155,17.0,17.0,94,0.08,,,0.11,Wunderground v.1.15,2013-01-11 02:56:00,
2013-01-10 20:59:00,35.9,34.3,29.94,SE,134,7.0,12.0,94,0.08,,,0.11,Wunderground v.1.15,2013-01-11 02:59:00,
2013-01-10 21:00:00,35.9,34.3,29.94,SSE,166,6.0,12.0,94,0.07,,,0.11,Wunderground v.1.15,2013-01-11 03:00:00,
2013-01-10 21:04:00,35.8,34.5,29.94,SSE,165,5.0,12.0,95,0.07,,,0.12,Wunderground v.1.15,2013-01-11 03:04:00,
2013-01-10 21:05:00,35.8,34.5,29.94,SE,128,5.0,12.0,95,0.07,,,0.12,Wunderground v.1.15,2013-01-11 03:05:00,
2013-01-10 21:08:00,35.8,34.5,29.93,SE,136,15.0,15.0,95,0.07,,,0.12,Wunderground v.1.15,2013-01-11 03:08:00,
2013-01-10 21:09:00,35.8,34.5,29.93,SSE,156,12.0,19.0,95,0.07,,,0.12,Wunderground v.1.15,2013-01-11 03:09:00,
2013-01-10 21:13:00,35.8,34.5,29.93,SE,139,15.0,19.0,95,0.05,,,0.12,Wunderground v.1.15,2013-01-11 03:13:00,
2013-01-10 21:14:00,35.8,34.5,29.93,South,170,9.0,19.0,95,0.04,,,0.12,Wunderground v.1.15,2013-01-11 03:14:00,
2013-01-10 21:18:00,35.6,34.3,29.93,SE,143,11.0,14.0,95,0.00,,,0.12,Wunderground v.1.15,2013-01-11 03:18:00,
2013-01-10 21:19:00,35.6,34.3,29.93,SSE,147,7.0,14.0,95,0.00,,,0.12,Wunderground v.1.15,2013-01-11 03:19:00,
2013-01-10 21:20:00,35.6,34.3,29.93,SE,134,6.0,14.0,95,0.00,,,0.12,Wunderground v.1.15,2013-01-11 03:20:00,
2013-01-10 21:23:00,35.6,34.3,29.92,SSE,147,6.0,14.0,95,0.00,,,0.12,Wunderground v.1.15,2013-01-11 03:23:00,
2013-01-10 21:25:00,35.6,34.3,29.92,ESE,118,5.0,14.0,95,0.00,,,0.13,Wunderground v.1.15,2013-01-11 03:25:00,
2013-01-10 21:27:00,35.6,34.3,29.92,SE,131,7.0,14.0,95,0.00,,,0.13,Wunderground v.1.15,2013-01-11 03:27:00,
2013-01-10 21:28:00,35.6,34.3,29.92,SE,139,9.0,11.0,95,0.00,,,0.13,Wunderground v.1.15,2013-01-11 03:28:00,
2013-01-10 21:30:00,35.6,34.3,29.92,SE,138,13.0,14.0,95,0.11,,,0.14,Wunderground v.1.15,2013-01-11 03:30:00,
2013-01-10 21:33:00,35.6,34.3,29.92,SE,143,11.0,14.0,95,0.11,,,0.14,Wunderground v.1.15,2013-01-11 03:33:00,
2013-01-10 21:34:00,35.6,34.3,29.92,SE,146,9.0,14.0,95,0.11,,,0.14,Wunderground v.1.15,2013-01-11 03:34:00,
2013-01-10 21:35:00,35.6,34.3,29.92,SSE,153,11.0,14.0,95,0.10,,,0.14,Wunderground v.1.15,2013-01-11 03:35:00,
2013-01-10 21:39:00,35.6,34.3,29.90,ESE,119,5.0,11.0,95,0.06,,,0.14,Wunderground v.1.15,2013-01-11 03:39:00,
2013-01-10 21:40:00,35.6,34.3,29.90,ESE,120,12.0,12.0,95,0.06,,,0.14,Wunderground v.1.15,2013-01-11 03:40:00,
2013-01-10 21:44:00,35.6,34.6,29.90,SSE,149,6.0,14.0,96,0.05,,,0.15,Wunderground v.1.15,2013-01-11 03:44:00,
2013-01-10 21:45:00,35.6,34.6,29.90,SSE,165,10.0,14.0,96,0.05,,,0.15,Wunderground v.1.15,2013-01-11 03:45:00,
2013-01-10 21:48:00,35.6,34.6,29.90,SE,124,5.0,8.0,96,0.08,,,0.16,Wunderground v.1.15,2013-01-11 03:48:00,
2013-01-10 21:51:00,35.6,34.6,29.90,ESE,105,7.0,13.0,96,0.08,,,0.16,Wunderground v.1.15,2013-01-11 03:51:00,
2013-01-10 21:54:00,35.6,34.6,29.89,SSE,150,12.0,13.0,96,0.08,,,0.16,Wunderground v.1.15,2013-01-11 03:54:00,
2013-01-10 21:56:00,35.6,34.6,29.89,SE,141,6.0,13.0,96,0.08,,,0.16,Wunderground v.1.15,2013-01-11 03:56:00,
2013-01-10 21:58:00,35.6,34.6,29.89,SSE,158,10.0,10.0,96,0.06,,,0.16,Wunderground v.1.15,2013-01-11 03:58:00,
2013-01-10 21:59:00,35.6,34.6,29.89,SSE,160,5.0,10.0,96,0.05,,,0.16,Wunderground v.1.15,2013-01-11 03:59:00,
2013-01-10 22:03:00,35.6,34.6,29.89,SSE,162,12.0,14.0,96,0.04,,,0.16,Wunderground v.1.15,2013-01-11 04:03:00,
2013-01-10 22:04:00,35.6,34.6,29.89,SE,144,4.0,14.0,96,0.04,,,0.16,Wunderground v.1.15,2013-01-11 04:04:00,
2013-01-10 22:05:00,35.6,34.6,29.89,SSE,164,4.0,14.0,96,0.04,,,0.16,Wunderground v.1.15,2013-01-11 04:05:00,
2013-01-10 22:08:00,35.6,34.6,29.88,SE,138,8.0,9.0,96,0.00,,,0.17,Wunderground v.1.15,2013-01-11 04:08:00,
2013-01-10 22:09:00,35.6,34.6,29.88,ESE,105,5.0,9.0,96,0.00,,,0.17,Wunderground v.1.15,2013-01-11 04:09:00,
2013-01-10 22:10:00,35.6,34.6,29.88,SSE,148,7.0,10.0,96,0.00,,,0.17,Wunderground v.1.15,2013-01-11 04:10:00,
2013-01-10 22:14:00,35.6,34.6,29.88,SSE,163,13.0,13.0,96,0.00,,,0.17,Wunderground v.1.15,2013-01-11 04:14:00,
2013-01-10 22:15:00,35.6,34.6,29.88,SE,127,14.0,14.0,96,0.00,,,0.17,Wunderground v.1.15,2013-01-11 04:15:00,
2013-01-10 22:19:00,35.8,34.8,29.88,SSE,147,5.0,10.0,96,0.05,,,0.18,Wunderground v.1.15,2013-01-11 04:19:00,
2013-01-10 22:23:00,35.9,34.9,29.88,SSE,153,6.0,11.0,96,0.05,,,0.18,Wunderground v.1.15,2013-01-11 04:23:00,
2013-01-10 22:25:00,35.9,34.9,29.88,SE,143,8.0,11.0,96,0.13,,,0.19,Wunderground v.1.15,2013-01-11 04:25:00,
2013-01-10 22:28:00,35.9,34.9,29.88,SE,145,13.0,13.0,96,0.37,,,0.21,Wunderground v.1.15,2013-01-11 04:28:00,
2013-01-10 22:30:00,35.9,34.9,29.88,SSE,158,4.0,14.0,96,0.32,,,0.22,Wunderground v.1.15,2013-01-11 04:30:00,
2013-01-10 22:34:00,35.9,34.9,29.88,SE,141,7.0,14.0,96,0.38,,,0.24,Wunderground v.1.15,2013-01-11 04:34:00,
2013-01-10 22:35:00,35.9,34.9,29.88,SSE,165,5.0,14.0,96,0.38,,,0.25,Wunderground v.1.15,2013-01-11 04:35:00,
2013-01-10 22:39:00,36.0,35.0,29.88,SE,139,7.0,9.0,96,0.27,,,0.27,Wunderground v.1.15,2013-01-11 04:39:00,
2013-01-10 22:41:00,36.0,35.0,29.88,SE,143,12.0,12.0,96,0.40,,,0.28,Wunderground v.1.15,2013-01-11 04:41:00,
2013-01-10 22:44:00,36.0,35.0,29.88,SE,146,12.0,15.0,96,0.35,,,0.30,Wunderground v.1.15,2013-01-11 04:44:00,
2013-01-10 22:48:00,36.2,35.2,29.88,South,169,10.0,11.0,96,0.61,,,0.34,Wunderground v.1.15,2013-01-11 04:48:00,
2013-01-10 22:50:00,36.2,35.2,29.88,SSE,147,6.0,12.0,96,0.50,,,0.35,Wunderground v.1.15,2013-01-11 04:50:00,
2013-01-10 22:53:00,36.2,35.2,29.87,SSE,160,11.0,12.0,96,0.62,,,0.38,Wunderground v.1.15,2013-01-11 04:53:00,
2013-01-10 22:55:00,36.2,35.2,29.87,SE,146,7.0,15.0,96,0.56,,,0.40,Wunderground v.1.15,2013-01-11 04:55:00,
2013-01-10 22:58:00,36.2,35.4,29.87,SSE,155,14.0,16.0,97,0.29,,,0.41,Wunderground v.1.15,2013-01-11 04:58:00,
2013-01-10 22:59:00,36.2,35.2,29.87,SSE,166,14.0,16.0,96,0.29,,,0.42,Wunderground v.1.15,2013-01-11 04:59:00,
2013-01-10 23:03:00,36.2,35.4,29.87,SSE,150,14.0,16.0,97,0.28,,,0.44,Wunderground v.1.15,2013-01-11 05:03:00,
2013-01-10 23:04:00,36.2,35.4,29.87,SSE,149,7.0,16.0,97,0.28,,,0.44,Wunderground v.1.15,2013-01-11 05:04:00,
2013-01-10 23:08:00,36.3,35.5,29.84,SE,131,8.0,12.0,97,0.22,,,0.46,Wunderground v.1.15,2013-01-11 05:08:00,
2013-01-10 23:09:00,36.3,35.5,29.84,ESE,120,7.0,12.0,97,0.22,,,0.46,Wunderground v.1.15,2013-01-11 05:09:00,
2013-01-10 23:10:00,36.3,35.5,29.84,SSE,166,5.0,12.0,97,0.22,,,0.00,Wunderground v.1.15,2013-01-11 05:10:00,
2013-01-10 23:13:00,36.3,35.5,29.84,SE,130,7.0,13.0,97,0.27,,,0.02,Wunderground v.1.15,2013-01-11 05:13:00,
2013-01-10 23:14:00,36.3,35.5,29.84,SE,134,10.0,13.0,97,0.27,,,0.02,Wunderground v.1.15,2013-01-11 05:14:00,
2013-01-10 23:15:00,36.3,35.5,29.84,SE,131,7.0,13.0,97,0.27,,,0.02,Wunderground v.1.15,2013-01-11 05:15:00,
2013-01-10 23:19:00,36.3,35.5,29.84,SE,136,6.0,15.0,97,0.19,,,0.03,Wunderground v.1.15,2013-01-11 05:19:00,
2013-01-10 23:20:00,36.3,35.5,29.84,SE,129,9.0,15.0,97,0.23,,,0.04,Wunderground v.1.15,2013-01-11 05:20:00,
2013-01-10 23:23:00,36.3,35.5,29.83,SSE,157,6.0,15.0,97,0.17,,,0.05,Wunderground v.1.15,2013-01-11 05:23:00,
2013-01-10 23:25:00,36.5,35.7,29.83,SE,143,8.0,15.0,97,0.17,,,0.05,Wunderground v.1.15,2013-01-11 05:25:00,
2013-01-10 23:26:00,36.5,35.7,29.83,SE,138,6.0,15.0,97,0.17,,,0.05,Wunderground v.1.15,2013-01-11 05:26:00,
2013-01-10 23:29:00,36.5,35.7,29.83,SE,136,6.0,8.0,97,0.10,,,0.05,Wunderground v.1.15,2013-01-11 05:29:00,
2013-01-10 23:33:00,36.5,35.7,29.83,SE,132,11.0,11.0,97,0.10,,,0.06,Wunderground v.1.15,2013-01-11 05:33:00,
2013-01-10 23:34:00,36.5,35.7,29.83,SSE,147,4.0,13.0,97,0.10,,,0.06,Wunderground v.1.15,2013-01-11 05:34:00,
2013-01-10 23:36:00,36.5,35.7,29.83,SSE,158,9.0,13.0,97,0.09,,,0.06,Wunderground v.1.15,2013-01-11 05:36:00,
2013-01-10 23:38:00,36.6,35.8,29.82,SE,136,9.0,11.0,97,0.07,,,0.07,Wunderground v.1.15,2013-01-11 05:38:00,
2013-01-10 23:39:00,36.6,35.8,29.82,ESE,113,6.0,11.0,97,0.07,,,0.07,Wunderground v.1.15,2013-01-11 05:39:00,
2013-01-10 23:43:00,36.6,35.8,29.82,SE,141,5.0,12.0,97,0.07,,,0.07,Wunderground v.1.15,2013-01-11 05:43:00,
2013-01-10 23:44:00,36.6,35.8,29.82,SE,134,11.0,12.0,97,0.07,,,0.07,Wunderground v.1.15,2013-01-11 05:44:00,
2013-01-10 23:45:00,36.6,35.8,29.82,SE,142,13.0,13.0,97,0.07,,,0.07,Wunderground v.1.15,2013-01-11 05:45:00,
2013-01-10 23:49:00,36.8,36.0,29.82,SE,136,10.0,11.0,97,0.05,,,0.07,Wunderground v.1.15,2013-01-11 05:49:00,
2013-01-10 23:50:00,36.8,36.0,29.82,SE,141,11.0,14.0,97,0.05,,,0.07,Wunderground v.1.15,2013-01-11 05:50:00,
2013-01-10 23:54:00,36.8,36.0,29.80,SE,129,6.0,14.0,97,0.04,,,0.07,Wunderground v.1.15,2013-01-11 05:54:00,
2013-01-10 23:55:00,36.8,36.0,29.80,SE,129,8.0,14.0,97,0.00,,,0.07,Wunderground v.1.15,2013-01-11 05:55:00,
2013-01-10 23:58:00,36.8,36.0,29.80,SSE,151,8.0,10.0,97,0.00,,,0.07,Wunderground v.1.15,2013-01-11 05:58:00,
2013-01-10 23:59:00,36.8,36.0,29.80,SE,141,9.0,10.0,97,0.00,,,0.07,Wunderground v.1.15,2013-01-11 05:59:00,